<?xml version="1.0" encoding="UTF-8" standalone="no" ?>
<gpx xmlns="http://www.topografix.com/GPX/1/1" xmlns:xsi="http://www.w3.org/2001/XMLSchema-instance" xsi:schemaLocation="http://www.topografix.com/GPX/1/1 http://www.topografix.com/GPX/1/1/gpx.xsd" version="1.1" creator="VisuGPX - https://www.visugpx.com">
  <metadata>
    <name>Boucle Belbeze Mongiscard</name>
    <desc><![CDATA[Ballade typique des coteaux du Lauragais empruntant des chemins agricoles et offrant de beaux panorama. 
A voir à mi parcours l'écluse de Montgiscard avec son bassin et le lavoir.
[img]https://cdt31.media.tourinsoft.eu/upload/ecluse-montgiscard.jpg?width=970&height=0&crop=0[/img]
Le parcours peux être raccourci de 600m en partant du cimetière au nord de Belbeze.
A éviter après des pluies prolongées, les chemins devenant très boueux.]]></desc>
  </metadata>
  <trk>
    <name><![CDATA[2021-04-29 17:15:46]]></name>
    <trkseg>
      <trkpt lat="43.44159" lon="1.5557">
        <ele>234.22</ele>
        <time>2021-04-29T13:56:40Z</time>
      </trkpt>
      <trkpt lat="43.44159" lon="1.5557">
        <ele>234.22</ele>
        <time>2021-04-29T13:56:41Z</time>
      </trkpt>
      <trkpt lat="43.44158" lon="1.5557">
        <ele>252</ele>
        <time>2021-04-29T13:56:44Z</time>
      </trkpt>
      <trkpt lat="43.44158" lon="1.5557">
        <ele>252</ele>
        <time>2021-04-29T13:56:45Z</time>
      </trkpt>
      <trkpt lat="43.44152" lon="1.55571">
        <ele>252</ele>
        <time>2021-04-29T13:57:08Z</time>
      </trkpt>
      <trkpt lat="43.44146" lon="1.55572">
        <ele>251.52</ele>
        <time>2021-04-29T13:57:33Z</time>
      </trkpt>
      <trkpt lat="43.44147" lon="1.55572">
        <ele>251.04</ele>
        <time>2021-04-29T13:57:59Z</time>
      </trkpt>
      <trkpt lat="43.4415" lon="1.55576">
        <ele>250.08</ele>
        <time>2021-04-29T13:58:12Z</time>
      </trkpt>
      <trkpt lat="43.44158" lon="1.55585">
        <ele>251.04</ele>
        <time>2021-04-29T13:58:19Z</time>
      </trkpt>
      <trkpt lat="43.44161" lon="1.55588">
        <ele>248.64</ele>
        <time>2021-04-29T13:58:23Z</time>
      </trkpt>
      <trkpt lat="43.44164" lon="1.5559">
        <ele>250.56</ele>
        <time>2021-04-29T13:58:25Z</time>
      </trkpt>
      <trkpt lat="43.44177" lon="1.5561">
        <ele>248.64</ele>
        <time>2021-04-29T13:58:39Z</time>
      </trkpt>
      <trkpt lat="43.44188" lon="1.55621">
        <ele>248.16</ele>
        <time>2021-04-29T13:58:46Z</time>
      </trkpt>
      <trkpt lat="43.44206" lon="1.55645">
        <ele>247.68</ele>
        <time>2021-04-29T13:59:01Z</time>
      </trkpt>
      <trkpt lat="43.44219" lon="1.55671">
        <ele>248.64</ele>
        <time>2021-04-29T13:59:16Z</time>
      </trkpt>
      <trkpt lat="43.44222" lon="1.55677">
        <ele>247.2</ele>
        <time>2021-04-29T13:59:20Z</time>
      </trkpt>
      <trkpt lat="43.44243" lon="1.55701">
        <ele>248.64</ele>
        <time>2021-04-29T13:59:37Z</time>
      </trkpt>
      <trkpt lat="43.44267" lon="1.55712">
        <ele>249.6</ele>
        <time>2021-04-29T13:59:55Z</time>
      </trkpt>
      <trkpt lat="43.44293" lon="1.5572">
        <ele>250.56</ele>
        <time>2021-04-29T14:00:16Z</time>
      </trkpt>
      <trkpt lat="43.44323" lon="1.55728">
        <ele>252.48</ele>
        <time>2021-04-29T14:00:39Z</time>
      </trkpt>
      <trkpt lat="43.44335" lon="1.55733">
        <ele>252.48</ele>
        <time>2021-04-29T14:00:47Z</time>
      </trkpt>
      <trkpt lat="43.44345" lon="1.55734">
        <ele>251.52</ele>
        <time>2021-04-29T14:00:53Z</time>
      </trkpt>
      <trkpt lat="43.44363" lon="1.55736">
        <ele>253.93</ele>
        <time>2021-04-29T14:01:06Z</time>
      </trkpt>
      <trkpt lat="43.44385" lon="1.55743">
        <ele>252.48</ele>
        <time>2021-04-29T14:01:20Z</time>
      </trkpt>
      <trkpt lat="43.44393" lon="1.55748">
        <ele>253.93</ele>
        <time>2021-04-29T14:01:26Z</time>
      </trkpt>
      <trkpt lat="43.44396" lon="1.5575">
        <ele>252</ele>
        <time>2021-04-29T14:01:28Z</time>
      </trkpt>
      <trkpt lat="43.44408" lon="1.5576">
        <ele>251.52</ele>
        <time>2021-04-29T14:01:41Z</time>
      </trkpt>
      <trkpt lat="43.44418" lon="1.55773">
        <ele>250.08</ele>
        <time>2021-04-29T14:01:49Z</time>
      </trkpt>
      <trkpt lat="43.44441" lon="1.55794">
        <ele>248.64</ele>
        <time>2021-04-29T14:02:08Z</time>
      </trkpt>
      <trkpt lat="43.4446" lon="1.55817">
        <ele>248.16</ele>
        <time>2021-04-29T14:02:24Z</time>
      </trkpt>
      <trkpt lat="43.44479" lon="1.55842">
        <ele>247.2</ele>
        <time>2021-04-29T14:02:41Z</time>
      </trkpt>
      <trkpt lat="43.44482" lon="1.55845">
        <ele>246.23</ele>
        <time>2021-04-29T14:02:45Z</time>
      </trkpt>
      <trkpt lat="43.44484" lon="1.5585">
        <ele>245.75</ele>
        <time>2021-04-29T14:02:48Z</time>
      </trkpt>
      <trkpt lat="43.44488" lon="1.55857">
        <ele>244.79</ele>
        <time>2021-04-29T14:02:52Z</time>
      </trkpt>
      <trkpt lat="43.44504" lon="1.55872">
        <ele>242.87</ele>
        <time>2021-04-29T14:03:05Z</time>
      </trkpt>
      <trkpt lat="43.44521" lon="1.55893">
        <ele>242.39</ele>
        <time>2021-04-29T14:03:19Z</time>
      </trkpt>
      <trkpt lat="43.4453" lon="1.55896">
        <ele>241.43</ele>
        <time>2021-04-29T14:03:26Z</time>
      </trkpt>
      <trkpt lat="43.44545" lon="1.55907">
        <ele>240.95</ele>
        <time>2021-04-29T14:03:37Z</time>
      </trkpt>
      <trkpt lat="43.44568" lon="1.55916">
        <ele>240.95</ele>
        <time>2021-04-29T14:03:53Z</time>
      </trkpt>
      <trkpt lat="43.44576" lon="1.55917">
        <ele>238.06</ele>
        <time>2021-04-29T14:03:59Z</time>
      </trkpt>
      <trkpt lat="43.44589" lon="1.55924">
        <ele>237.1</ele>
        <time>2021-04-29T14:04:08Z</time>
      </trkpt>
      <trkpt lat="43.44596" lon="1.55925">
        <ele>237.1</ele>
        <time>2021-04-29T14:04:13Z</time>
      </trkpt>
      <trkpt lat="43.44609" lon="1.55931">
        <ele>236.14</ele>
        <time>2021-04-29T14:04:22Z</time>
      </trkpt>
      <trkpt lat="43.44617" lon="1.55932">
        <ele>236.62</ele>
        <time>2021-04-29T14:04:27Z</time>
      </trkpt>
      <trkpt lat="43.4462" lon="1.55933">
        <ele>234.7</ele>
        <time>2021-04-29T14:04:29Z</time>
      </trkpt>
      <trkpt lat="43.44629" lon="1.55936">
        <ele>234.22</ele>
        <time>2021-04-29T14:04:36Z</time>
      </trkpt>
      <trkpt lat="43.44656" lon="1.55952">
        <ele>232.78</ele>
        <time>2021-04-29T14:04:53Z</time>
      </trkpt>
      <trkpt lat="43.44659" lon="1.55953">
        <ele>234.22</ele>
        <time>2021-04-29T14:04:55Z</time>
      </trkpt>
      <trkpt lat="43.44675" lon="1.5596">
        <ele>233.26</ele>
        <time>2021-04-29T14:05:07Z</time>
      </trkpt>
      <trkpt lat="43.44677" lon="1.55962">
        <ele>232.78</ele>
        <time>2021-04-29T14:05:10Z</time>
      </trkpt>
      <trkpt lat="43.44678" lon="1.55965">
        <ele>232.78</ele>
        <time>2021-04-29T14:05:12Z</time>
      </trkpt>
      <trkpt lat="43.44685" lon="1.55974">
        <ele>231.81</ele>
        <time>2021-04-29T14:05:19Z</time>
      </trkpt>
      <trkpt lat="43.44689" lon="1.55979">
        <ele>232.3</ele>
        <time>2021-04-29T14:05:23Z</time>
      </trkpt>
      <trkpt lat="43.44698" lon="1.55998">
        <ele>231.33</ele>
        <time>2021-04-29T14:05:34Z</time>
      </trkpt>
      <trkpt lat="43.4471" lon="1.56019">
        <ele>230.85</ele>
        <time>2021-04-29T14:05:46Z</time>
      </trkpt>
      <trkpt lat="43.44711" lon="1.56021">
        <ele>231.33</ele>
        <time>2021-04-29T14:05:47Z</time>
      </trkpt>
      <trkpt lat="43.44712" lon="1.56022">
        <ele>231.33</ele>
        <time>2021-04-29T14:05:48Z</time>
      </trkpt>
      <trkpt lat="43.44713" lon="1.56024">
        <ele>231.33</ele>
        <time>2021-04-29T14:05:49Z</time>
      </trkpt>
      <trkpt lat="43.44714" lon="1.56025">
        <ele>231.33</ele>
        <time>2021-04-29T14:05:50Z</time>
      </trkpt>
      <trkpt lat="43.44717" lon="1.56027">
        <ele>230.37</ele>
        <time>2021-04-29T14:05:54Z</time>
      </trkpt>
      <trkpt lat="43.44718" lon="1.56029">
        <ele>230.37</ele>
        <time>2021-04-29T14:05:55Z</time>
      </trkpt>
      <trkpt lat="43.44719" lon="1.56031">
        <ele>229.89</ele>
        <time>2021-04-29T14:05:56Z</time>
      </trkpt>
      <trkpt lat="43.4472" lon="1.56033">
        <ele>229.89</ele>
        <time>2021-04-29T14:05:57Z</time>
      </trkpt>
      <trkpt lat="43.44721" lon="1.56036">
        <ele>229.89</ele>
        <time>2021-04-29T14:05:58Z</time>
      </trkpt>
      <trkpt lat="43.44722" lon="1.56038">
        <ele>229.89</ele>
        <time>2021-04-29T14:05:59Z</time>
      </trkpt>
      <trkpt lat="43.4473" lon="1.56057">
        <ele>229.41</ele>
        <time>2021-04-29T14:06:09Z</time>
      </trkpt>
      <trkpt lat="43.44734" lon="1.56064">
        <ele>228.93</ele>
        <time>2021-04-29T14:06:14Z</time>
      </trkpt>
      <trkpt lat="43.44735" lon="1.56067">
        <ele>228.93</ele>
        <time>2021-04-29T14:06:15Z</time>
      </trkpt>
      <trkpt lat="43.44736" lon="1.56069">
        <ele>228.93</ele>
        <time>2021-04-29T14:06:16Z</time>
      </trkpt>
      <trkpt lat="43.44737" lon="1.56071">
        <ele>228.93</ele>
        <time>2021-04-29T14:06:17Z</time>
      </trkpt>
      <trkpt lat="43.44739" lon="1.56072">
        <ele>228.45</ele>
        <time>2021-04-29T14:06:18Z</time>
      </trkpt>
      <trkpt lat="43.44747" lon="1.56085">
        <ele>226.53</ele>
        <time>2021-04-29T14:06:29Z</time>
      </trkpt>
      <trkpt lat="43.44748" lon="1.56087">
        <ele>226.53</ele>
        <time>2021-04-29T14:06:30Z</time>
      </trkpt>
      <trkpt lat="43.44749" lon="1.56088">
        <ele>226.53</ele>
        <time>2021-04-29T14:06:31Z</time>
      </trkpt>
      <trkpt lat="43.44765" lon="1.56106">
        <ele>223.16</ele>
        <time>2021-04-29T14:06:44Z</time>
      </trkpt>
      <trkpt lat="43.44769" lon="1.56108">
        <ele>222.2</ele>
        <time>2021-04-29T14:06:47Z</time>
      </trkpt>
      <trkpt lat="43.4477" lon="1.5611">
        <ele>222.2</ele>
        <time>2021-04-29T14:06:48Z</time>
      </trkpt>
      <trkpt lat="43.44771" lon="1.56113">
        <ele>221.72</ele>
        <time>2021-04-29T14:06:49Z</time>
      </trkpt>
      <trkpt lat="43.44773" lon="1.56114">
        <ele>221.24</ele>
        <time>2021-04-29T14:06:50Z</time>
      </trkpt>
      <trkpt lat="43.44774" lon="1.56116">
        <ele>221.24</ele>
        <time>2021-04-29T14:06:51Z</time>
      </trkpt>
      <trkpt lat="43.44774" lon="1.56117">
        <ele>220.76</ele>
        <time>2021-04-29T14:06:52Z</time>
      </trkpt>
      <trkpt lat="43.44775" lon="1.56118">
        <ele>220.76</ele>
        <time>2021-04-29T14:06:53Z</time>
      </trkpt>
      <trkpt lat="43.44777" lon="1.56119">
        <ele>220.76</ele>
        <time>2021-04-29T14:06:54Z</time>
      </trkpt>
      <trkpt lat="43.44778" lon="1.56119">
        <ele>219.8</ele>
        <time>2021-04-29T14:06:55Z</time>
      </trkpt>
      <trkpt lat="43.44779" lon="1.5612">
        <ele>219.8</ele>
        <time>2021-04-29T14:06:56Z</time>
      </trkpt>
      <trkpt lat="43.44784" lon="1.56125">
        <ele>218.36</ele>
        <time>2021-04-29T14:07:00Z</time>
      </trkpt>
      <trkpt lat="43.44785" lon="1.56125">
        <ele>218.84</ele>
        <time>2021-04-29T14:07:01Z</time>
      </trkpt>
      <trkpt lat="43.44786" lon="1.56127">
        <ele>217.88</ele>
        <time>2021-04-29T14:07:02Z</time>
      </trkpt>
      <trkpt lat="43.44787" lon="1.56128">
        <ele>217.88</ele>
        <time>2021-04-29T14:07:03Z</time>
      </trkpt>
      <trkpt lat="43.44788" lon="1.56129">
        <ele>217.4</ele>
        <time>2021-04-29T14:07:04Z</time>
      </trkpt>
      <trkpt lat="43.44789" lon="1.5613">
        <ele>217.4</ele>
        <time>2021-04-29T14:07:05Z</time>
      </trkpt>
      <trkpt lat="43.4479" lon="1.56132">
        <ele>217.4</ele>
        <time>2021-04-29T14:07:06Z</time>
      </trkpt>
      <trkpt lat="43.448" lon="1.5614">
        <ele>214.99</ele>
        <time>2021-04-29T14:07:14Z</time>
      </trkpt>
      <trkpt lat="43.44801" lon="1.5614">
        <ele>214.99</ele>
        <time>2021-04-29T14:07:15Z</time>
      </trkpt>
      <trkpt lat="43.44803" lon="1.56141">
        <ele>214.51</ele>
        <time>2021-04-29T14:07:17Z</time>
      </trkpt>
      <trkpt lat="43.44805" lon="1.56143">
        <ele>214.51</ele>
        <time>2021-04-29T14:07:19Z</time>
      </trkpt>
      <trkpt lat="43.44805" lon="1.56144">
        <ele>214.51</ele>
        <time>2021-04-29T14:07:20Z</time>
      </trkpt>
      <trkpt lat="43.44812" lon="1.56155">
        <ele>212.11</ele>
        <time>2021-04-29T14:07:33Z</time>
      </trkpt>
      <trkpt lat="43.4482" lon="1.56165">
        <ele>209.7</ele>
        <time>2021-04-29T14:07:48Z</time>
      </trkpt>
      <trkpt lat="43.44829" lon="1.56175">
        <ele>207.3</ele>
        <time>2021-04-29T14:08:03Z</time>
      </trkpt>
      <trkpt lat="43.44833" lon="1.5618">
        <ele>205.38</ele>
        <time>2021-04-29T14:08:08Z</time>
      </trkpt>
      <trkpt lat="43.44834" lon="1.56181">
        <ele>205.38</ele>
        <time>2021-04-29T14:08:09Z</time>
      </trkpt>
      <trkpt lat="43.44836" lon="1.56182">
        <ele>204.9</ele>
        <time>2021-04-29T14:08:10Z</time>
      </trkpt>
      <trkpt lat="43.44845" lon="1.56195">
        <ele>202.49</ele>
        <time>2021-04-29T14:08:21Z</time>
      </trkpt>
      <trkpt lat="43.44848" lon="1.56197">
        <ele>201.53</ele>
        <time>2021-04-29T14:08:24Z</time>
      </trkpt>
      <trkpt lat="43.44858" lon="1.56205">
        <ele>198.65</ele>
        <time>2021-04-29T14:08:33Z</time>
      </trkpt>
      <trkpt lat="43.44871" lon="1.56225">
        <ele>195.77</ele>
        <time>2021-04-29T14:08:48Z</time>
      </trkpt>
      <trkpt lat="43.44873" lon="1.56227">
        <ele>195.28</ele>
        <time>2021-04-29T14:08:49Z</time>
      </trkpt>
      <trkpt lat="43.44874" lon="1.5623">
        <ele>194.8</ele>
        <time>2021-04-29T14:08:51Z</time>
      </trkpt>
      <trkpt lat="43.44884" lon="1.5625">
        <ele>191.92</ele>
        <time>2021-04-29T14:09:03Z</time>
      </trkpt>
      <trkpt lat="43.44884" lon="1.56256">
        <ele>190.96</ele>
        <time>2021-04-29T14:09:06Z</time>
      </trkpt>
      <trkpt lat="43.44885" lon="1.5626">
        <ele>190.96</ele>
        <time>2021-04-29T14:09:09Z</time>
      </trkpt>
      <trkpt lat="43.44885" lon="1.56262">
        <ele>190.96</ele>
        <time>2021-04-29T14:09:10Z</time>
      </trkpt>
      <trkpt lat="43.4489" lon="1.56281">
        <ele>189.04</ele>
        <time>2021-04-29T14:09:22Z</time>
      </trkpt>
      <trkpt lat="43.44897" lon="1.56304">
        <ele>187.11</ele>
        <time>2021-04-29T14:09:33Z</time>
      </trkpt>
      <trkpt lat="43.44898" lon="1.56306">
        <ele>186.15</ele>
        <time>2021-04-29T14:09:34Z</time>
      </trkpt>
      <trkpt lat="43.44899" lon="1.56307">
        <ele>186.15</ele>
        <time>2021-04-29T14:09:35Z</time>
      </trkpt>
      <trkpt lat="43.44912" lon="1.56327">
        <ele>185.19</ele>
        <time>2021-04-29T14:09:45Z</time>
      </trkpt>
      <trkpt lat="43.44913" lon="1.56328">
        <ele>185.19</ele>
        <time>2021-04-29T14:09:46Z</time>
      </trkpt>
      <trkpt lat="43.44914" lon="1.56329">
        <ele>185.19</ele>
        <time>2021-04-29T14:09:47Z</time>
      </trkpt>
      <trkpt lat="43.44916" lon="1.56331">
        <ele>185.19</ele>
        <time>2021-04-29T14:09:49Z</time>
      </trkpt>
      <trkpt lat="43.44918" lon="1.56331">
        <ele>185.19</ele>
        <time>2021-04-29T14:09:50Z</time>
      </trkpt>
      <trkpt lat="43.44936" lon="1.56346">
        <ele>185.19</ele>
        <time>2021-04-29T14:10:02Z</time>
      </trkpt>
      <trkpt lat="43.44941" lon="1.56347">
        <ele>185.19</ele>
        <time>2021-04-29T14:10:05Z</time>
      </trkpt>
      <trkpt lat="43.44943" lon="1.56346">
        <ele>185.19</ele>
        <time>2021-04-29T14:10:06Z</time>
      </trkpt>
      <trkpt lat="43.44945" lon="1.56347">
        <ele>185.19</ele>
        <time>2021-04-29T14:10:07Z</time>
      </trkpt>
      <trkpt lat="43.44959" lon="1.56363">
        <ele>185.19</ele>
        <time>2021-04-29T14:10:19Z</time>
      </trkpt>
      <trkpt lat="43.4496" lon="1.56365">
        <ele>185.19</ele>
        <time>2021-04-29T14:10:20Z</time>
      </trkpt>
      <trkpt lat="43.44962" lon="1.56367">
        <ele>185.19</ele>
        <time>2021-04-29T14:10:21Z</time>
      </trkpt>
      <trkpt lat="43.44963" lon="1.56369">
        <ele>185.19</ele>
        <time>2021-04-29T14:10:22Z</time>
      </trkpt>
      <trkpt lat="43.44964" lon="1.5637">
        <ele>185.19</ele>
        <time>2021-04-29T14:10:23Z</time>
      </trkpt>
      <trkpt lat="43.44965" lon="1.56372">
        <ele>185.19</ele>
        <time>2021-04-29T14:10:24Z</time>
      </trkpt>
      <trkpt lat="43.44966" lon="1.56374">
        <ele>185.19</ele>
        <time>2021-04-29T14:10:25Z</time>
      </trkpt>
      <trkpt lat="43.44967" lon="1.56376">
        <ele>185.19</ele>
        <time>2021-04-29T14:10:26Z</time>
      </trkpt>
      <trkpt lat="43.44968" lon="1.56378">
        <ele>185.19</ele>
        <time>2021-04-29T14:10:27Z</time>
      </trkpt>
      <trkpt lat="43.4497" lon="1.5638">
        <ele>185.19</ele>
        <time>2021-04-29T14:10:28Z</time>
      </trkpt>
      <trkpt lat="43.44971" lon="1.56381">
        <ele>185.19</ele>
        <time>2021-04-29T14:10:29Z</time>
      </trkpt>
      <trkpt lat="43.44973" lon="1.56382">
        <ele>185.19</ele>
        <time>2021-04-29T14:10:30Z</time>
      </trkpt>
      <trkpt lat="43.44974" lon="1.56383">
        <ele>185.19</ele>
        <time>2021-04-29T14:10:31Z</time>
      </trkpt>
      <trkpt lat="43.44975" lon="1.56384">
        <ele>184.71</ele>
        <time>2021-04-29T14:10:32Z</time>
      </trkpt>
      <trkpt lat="43.44994" lon="1.56396">
        <ele>184.71</ele>
        <time>2021-04-29T14:10:45Z</time>
      </trkpt>
      <trkpt lat="43.45014" lon="1.5641">
        <ele>184.71</ele>
        <time>2021-04-29T14:10:59Z</time>
      </trkpt>
      <trkpt lat="43.45016" lon="1.56411">
        <ele>184.71</ele>
        <time>2021-04-29T14:11:01Z</time>
      </trkpt>
      <trkpt lat="43.45017" lon="1.56411">
        <ele>184.71</ele>
        <time>2021-04-29T14:11:02Z</time>
      </trkpt>
      <trkpt lat="43.45035" lon="1.56415">
        <ele>184.71</ele>
        <time>2021-04-29T14:11:13Z</time>
      </trkpt>
      <trkpt lat="43.45036" lon="1.56417">
        <ele>184.71</ele>
        <time>2021-04-29T14:11:14Z</time>
      </trkpt>
      <trkpt lat="43.45037" lon="1.56418">
        <ele>184.71</ele>
        <time>2021-04-29T14:11:15Z</time>
      </trkpt>
      <trkpt lat="43.45038" lon="1.56419">
        <ele>184.23</ele>
        <time>2021-04-29T14:11:16Z</time>
      </trkpt>
      <trkpt lat="43.45039" lon="1.5642">
        <ele>184.23</ele>
        <time>2021-04-29T14:11:17Z</time>
      </trkpt>
      <trkpt lat="43.45041" lon="1.5642">
        <ele>184.23</ele>
        <time>2021-04-29T14:11:18Z</time>
      </trkpt>
      <trkpt lat="43.45042" lon="1.56421">
        <ele>184.23</ele>
        <time>2021-04-29T14:11:19Z</time>
      </trkpt>
      <trkpt lat="43.45043" lon="1.56422">
        <ele>184.23</ele>
        <time>2021-04-29T14:11:20Z</time>
      </trkpt>
      <trkpt lat="43.45044" lon="1.56424">
        <ele>184.23</ele>
        <time>2021-04-29T14:11:21Z</time>
      </trkpt>
      <trkpt lat="43.45056" lon="1.56433">
        <ele>183.75</ele>
        <time>2021-04-29T14:11:33Z</time>
      </trkpt>
      <trkpt lat="43.45057" lon="1.56434">
        <ele>184.23</ele>
        <time>2021-04-29T14:11:34Z</time>
      </trkpt>
      <trkpt lat="43.45078" lon="1.56458">
        <ele>185.19</ele>
        <time>2021-04-29T14:11:51Z</time>
      </trkpt>
      <trkpt lat="43.45082" lon="1.56461">
        <ele>185.19</ele>
        <time>2021-04-29T14:11:54Z</time>
      </trkpt>
      <trkpt lat="43.45083" lon="1.56463">
        <ele>185.19</ele>
        <time>2021-04-29T14:11:55Z</time>
      </trkpt>
      <trkpt lat="43.45084" lon="1.56464">
        <ele>185.19</ele>
        <time>2021-04-29T14:11:56Z</time>
      </trkpt>
      <trkpt lat="43.45085" lon="1.56464">
        <ele>185.19</ele>
        <time>2021-04-29T14:11:57Z</time>
      </trkpt>
      <trkpt lat="43.45086" lon="1.56464">
        <ele>185.19</ele>
        <time>2021-04-29T14:11:58Z</time>
      </trkpt>
      <trkpt lat="43.45087" lon="1.56464">
        <ele>185.19</ele>
        <time>2021-04-29T14:11:59Z</time>
      </trkpt>
      <trkpt lat="43.45089" lon="1.56464">
        <ele>185.19</ele>
        <time>2021-04-29T14:12:00Z</time>
      </trkpt>
      <trkpt lat="43.4509" lon="1.56465">
        <ele>185.19</ele>
        <time>2021-04-29T14:12:01Z</time>
      </trkpt>
      <trkpt lat="43.45091" lon="1.56465">
        <ele>185.19</ele>
        <time>2021-04-29T14:12:02Z</time>
      </trkpt>
      <trkpt lat="43.45093" lon="1.56466">
        <ele>185.19</ele>
        <time>2021-04-29T14:12:03Z</time>
      </trkpt>
      <trkpt lat="43.45094" lon="1.56467">
        <ele>185.67</ele>
        <time>2021-04-29T14:12:04Z</time>
      </trkpt>
      <trkpt lat="43.45096" lon="1.56468">
        <ele>185.67</ele>
        <time>2021-04-29T14:12:06Z</time>
      </trkpt>
      <trkpt lat="43.45097" lon="1.56468">
        <ele>185.67</ele>
        <time>2021-04-29T14:12:07Z</time>
      </trkpt>
      <trkpt lat="43.45099" lon="1.56468">
        <ele>185.67</ele>
        <time>2021-04-29T14:12:08Z</time>
      </trkpt>
      <trkpt lat="43.45119" lon="1.5647">
        <ele>186.63</ele>
        <time>2021-04-29T14:12:23Z</time>
      </trkpt>
      <trkpt lat="43.45142" lon="1.56488">
        <ele>188.56</ele>
        <time>2021-04-29T14:12:41Z</time>
      </trkpt>
      <trkpt lat="43.45153" lon="1.56493">
        <ele>189.04</ele>
        <time>2021-04-29T14:12:50Z</time>
      </trkpt>
      <trkpt lat="43.45154" lon="1.56493">
        <ele>189.52</ele>
        <time>2021-04-29T14:12:51Z</time>
      </trkpt>
      <trkpt lat="43.45155" lon="1.56494">
        <ele>189.52</ele>
        <time>2021-04-29T14:12:52Z</time>
      </trkpt>
      <trkpt lat="43.45157" lon="1.56495">
        <ele>190</ele>
        <time>2021-04-29T14:12:53Z</time>
      </trkpt>
      <trkpt lat="43.45158" lon="1.56496">
        <ele>190</ele>
        <time>2021-04-29T14:12:54Z</time>
      </trkpt>
      <trkpt lat="43.45159" lon="1.56498">
        <ele>190</ele>
        <time>2021-04-29T14:12:55Z</time>
      </trkpt>
      <trkpt lat="43.45175" lon="1.56511">
        <ele>191.92</ele>
        <time>2021-04-29T14:13:10Z</time>
      </trkpt>
      <trkpt lat="43.45179" lon="1.56515">
        <ele>193.36</ele>
        <time>2021-04-29T14:13:14Z</time>
      </trkpt>
      <trkpt lat="43.45188" lon="1.56529">
        <ele>195.77</ele>
        <time>2021-04-29T14:13:28Z</time>
      </trkpt>
      <trkpt lat="43.45192" lon="1.56536">
        <ele>197.69</ele>
        <time>2021-04-29T14:13:35Z</time>
      </trkpt>
      <trkpt lat="43.45202" lon="1.56555">
        <ele>199.61</ele>
        <time>2021-04-29T14:13:48Z</time>
      </trkpt>
      <trkpt lat="43.45207" lon="1.56559">
        <ele>201.53</ele>
        <time>2021-04-29T14:13:56Z</time>
      </trkpt>
      <trkpt lat="43.45212" lon="1.56562">
        <ele>202.01</ele>
        <time>2021-04-29T14:14:00Z</time>
      </trkpt>
      <trkpt lat="43.4523" lon="1.56574">
        <ele>203.94</ele>
        <time>2021-04-29T14:14:16Z</time>
      </trkpt>
      <trkpt lat="43.45239" lon="1.5658">
        <ele>204.9</ele>
        <time>2021-04-29T14:14:25Z</time>
      </trkpt>
      <trkpt lat="43.45242" lon="1.56581">
        <ele>204.9</ele>
        <time>2021-04-29T14:14:28Z</time>
      </trkpt>
      <trkpt lat="43.45248" lon="1.56592">
        <ele>205.38</ele>
        <time>2021-04-29T14:14:36Z</time>
      </trkpt>
      <trkpt lat="43.45261" lon="1.56606">
        <ele>205.86</ele>
        <time>2021-04-29T14:14:49Z</time>
      </trkpt>
      <trkpt lat="43.45274" lon="1.56624">
        <ele>206.34</ele>
        <time>2021-04-29T14:15:02Z</time>
      </trkpt>
      <trkpt lat="43.4528" lon="1.56627">
        <ele>206.34</ele>
        <time>2021-04-29T14:15:06Z</time>
      </trkpt>
      <trkpt lat="43.45284" lon="1.56632">
        <ele>206.82</ele>
        <time>2021-04-29T14:15:11Z</time>
      </trkpt>
      <trkpt lat="43.45288" lon="1.56644">
        <ele>206.82</ele>
        <time>2021-04-29T14:15:27Z</time>
      </trkpt>
      <trkpt lat="43.45293" lon="1.56649">
        <ele>207.3</ele>
        <time>2021-04-29T14:15:43Z</time>
      </trkpt>
      <trkpt lat="43.45304" lon="1.56661">
        <ele>206.82</ele>
        <time>2021-04-29T14:15:57Z</time>
      </trkpt>
      <trkpt lat="43.4532" lon="1.56681">
        <ele>209.22</ele>
        <time>2021-04-29T14:16:13Z</time>
      </trkpt>
      <trkpt lat="43.45336" lon="1.56697">
        <ele>212.11</ele>
        <time>2021-04-29T14:16:27Z</time>
      </trkpt>
      <trkpt lat="43.45345" lon="1.56711">
        <ele>214.51</ele>
        <time>2021-04-29T14:16:39Z</time>
      </trkpt>
      <trkpt lat="43.45356" lon="1.56725">
        <ele>217.4</ele>
        <time>2021-04-29T14:16:54Z</time>
      </trkpt>
      <trkpt lat="43.45365" lon="1.5674">
        <ele>218.84</ele>
        <time>2021-04-29T14:17:08Z</time>
      </trkpt>
      <trkpt lat="43.45373" lon="1.5676">
        <ele>221.24</ele>
        <time>2021-04-29T14:17:21Z</time>
      </trkpt>
      <trkpt lat="43.45376" lon="1.56767">
        <ele>222.68</ele>
        <time>2021-04-29T14:17:25Z</time>
      </trkpt>
      <trkpt lat="43.45378" lon="1.5677">
        <ele>222.68</ele>
        <time>2021-04-29T14:17:28Z</time>
      </trkpt>
      <trkpt lat="43.45391" lon="1.56789">
        <ele>224.61</ele>
        <time>2021-04-29T14:17:45Z</time>
      </trkpt>
      <trkpt lat="43.45394" lon="1.56794">
        <ele>225.09</ele>
        <time>2021-04-29T14:17:49Z</time>
      </trkpt>
      <trkpt lat="43.45414" lon="1.5681">
        <ele>225.09</ele>
        <time>2021-04-29T14:18:10Z</time>
      </trkpt>
      <trkpt lat="43.45417" lon="1.56812">
        <ele>223.16</ele>
        <time>2021-04-29T14:18:12Z</time>
      </trkpt>
      <trkpt lat="43.45424" lon="1.5682">
        <ele>222.2</ele>
        <time>2021-04-29T14:18:25Z</time>
      </trkpt>
      <trkpt lat="43.45432" lon="1.56828">
        <ele>221.24</ele>
        <time>2021-04-29T14:18:40Z</time>
      </trkpt>
      <trkpt lat="43.45447" lon="1.56841">
        <ele>217.88</ele>
        <time>2021-04-29T14:18:54Z</time>
      </trkpt>
      <trkpt lat="43.45465" lon="1.56858">
        <ele>214.51</ele>
        <time>2021-04-29T14:19:09Z</time>
      </trkpt>
      <trkpt lat="43.45479" lon="1.56873">
        <ele>212.59</ele>
        <time>2021-04-29T14:19:21Z</time>
      </trkpt>
      <trkpt lat="43.45492" lon="1.56887">
        <ele>210.19</ele>
        <time>2021-04-29T14:19:32Z</time>
      </trkpt>
      <trkpt lat="43.45493" lon="1.56889">
        <ele>209.22</ele>
        <time>2021-04-29T14:19:33Z</time>
      </trkpt>
      <trkpt lat="43.45495" lon="1.5689">
        <ele>208.74</ele>
        <time>2021-04-29T14:19:34Z</time>
      </trkpt>
      <trkpt lat="43.45501" lon="1.56897">
        <ele>208.26</ele>
        <time>2021-04-29T14:19:38Z</time>
      </trkpt>
      <trkpt lat="43.45502" lon="1.56899">
        <ele>208.26</ele>
        <time>2021-04-29T14:19:39Z</time>
      </trkpt>
      <trkpt lat="43.45518" lon="1.56915">
        <ele>205.38</ele>
        <time>2021-04-29T14:19:52Z</time>
      </trkpt>
      <trkpt lat="43.45536" lon="1.56937">
        <ele>203.46</ele>
        <time>2021-04-29T14:20:06Z</time>
      </trkpt>
      <trkpt lat="43.45553" lon="1.56954">
        <ele>202.01</ele>
        <time>2021-04-29T14:20:21Z</time>
      </trkpt>
      <trkpt lat="43.4557" lon="1.5697">
        <ele>201.05</ele>
        <time>2021-04-29T14:20:34Z</time>
      </trkpt>
      <trkpt lat="43.45581" lon="1.56979">
        <ele>200.57</ele>
        <time>2021-04-29T14:20:41Z</time>
      </trkpt>
      <trkpt lat="43.45588" lon="1.56987">
        <ele>199.61</ele>
        <time>2021-04-29T14:20:47Z</time>
      </trkpt>
      <trkpt lat="43.45589" lon="1.56988">
        <ele>199.61</ele>
        <time>2021-04-29T14:20:48Z</time>
      </trkpt>
      <trkpt lat="43.45607" lon="1.57009">
        <ele>199.13</ele>
        <time>2021-04-29T14:21:02Z</time>
      </trkpt>
      <trkpt lat="43.45626" lon="1.57028">
        <ele>198.17</ele>
        <time>2021-04-29T14:21:17Z</time>
      </trkpt>
      <trkpt lat="43.45642" lon="1.57043">
        <ele>196.73</ele>
        <time>2021-04-29T14:21:31Z</time>
      </trkpt>
      <trkpt lat="43.45661" lon="1.57059">
        <ele>195.28</ele>
        <time>2021-04-29T14:21:45Z</time>
      </trkpt>
      <trkpt lat="43.4568" lon="1.57075">
        <ele>194.32</ele>
        <time>2021-04-29T14:22:02Z</time>
      </trkpt>
      <trkpt lat="43.45695" lon="1.57091">
        <ele>192.88</ele>
        <time>2021-04-29T14:22:15Z</time>
      </trkpt>
      <trkpt lat="43.45711" lon="1.5711">
        <ele>191.92</ele>
        <time>2021-04-29T14:22:28Z</time>
      </trkpt>
      <trkpt lat="43.45721" lon="1.57123">
        <ele>191.44</ele>
        <time>2021-04-29T14:22:37Z</time>
      </trkpt>
      <trkpt lat="43.45722" lon="1.57124">
        <ele>191.44</ele>
        <time>2021-04-29T14:22:38Z</time>
      </trkpt>
      <trkpt lat="43.45723" lon="1.57126">
        <ele>190.96</ele>
        <time>2021-04-29T14:22:39Z</time>
      </trkpt>
      <trkpt lat="43.45725" lon="1.57127">
        <ele>190.96</ele>
        <time>2021-04-29T14:22:40Z</time>
      </trkpt>
      <trkpt lat="43.45727" lon="1.57129">
        <ele>190.96</ele>
        <time>2021-04-29T14:22:41Z</time>
      </trkpt>
      <trkpt lat="43.45728" lon="1.5713">
        <ele>190.96</ele>
        <time>2021-04-29T14:22:42Z</time>
      </trkpt>
      <trkpt lat="43.45729" lon="1.57132">
        <ele>190.96</ele>
        <time>2021-04-29T14:22:43Z</time>
      </trkpt>
      <trkpt lat="43.4573" lon="1.57133">
        <ele>190.48</ele>
        <time>2021-04-29T14:22:44Z</time>
      </trkpt>
      <trkpt lat="43.45731" lon="1.57135">
        <ele>190.48</ele>
        <time>2021-04-29T14:22:45Z</time>
      </trkpt>
      <trkpt lat="43.4574" lon="1.57143">
        <ele>190.48</ele>
        <time>2021-04-29T14:22:53Z</time>
      </trkpt>
      <trkpt lat="43.45741" lon="1.57143">
        <ele>190.48</ele>
        <time>2021-04-29T14:22:54Z</time>
      </trkpt>
      <trkpt lat="43.45742" lon="1.57142">
        <ele>190.48</ele>
        <time>2021-04-29T14:22:55Z</time>
      </trkpt>
      <trkpt lat="43.45744" lon="1.57141">
        <ele>190.48</ele>
        <time>2021-04-29T14:22:56Z</time>
      </trkpt>
      <trkpt lat="43.45745" lon="1.57141">
        <ele>190.48</ele>
        <time>2021-04-29T14:22:57Z</time>
      </trkpt>
      <trkpt lat="43.45763" lon="1.57127">
        <ele>189.04</ele>
        <time>2021-04-29T14:23:09Z</time>
      </trkpt>
      <trkpt lat="43.45773" lon="1.57113">
        <ele>188.56</ele>
        <time>2021-04-29T14:23:21Z</time>
      </trkpt>
      <trkpt lat="43.45786" lon="1.57096">
        <ele>187.59</ele>
        <time>2021-04-29T14:23:34Z</time>
      </trkpt>
      <trkpt lat="43.45797" lon="1.57095">
        <ele>187.59</ele>
        <time>2021-04-29T14:23:50Z</time>
      </trkpt>
      <trkpt lat="43.458" lon="1.57098">
        <ele>187.59</ele>
        <time>2021-04-29T14:23:52Z</time>
      </trkpt>
      <trkpt lat="43.45801" lon="1.571">
        <ele>187.59</ele>
        <time>2021-04-29T14:23:53Z</time>
      </trkpt>
      <trkpt lat="43.45802" lon="1.57101">
        <ele>187.59</ele>
        <time>2021-04-29T14:23:54Z</time>
      </trkpt>
      <trkpt lat="43.45804" lon="1.57101">
        <ele>187.59</ele>
        <time>2021-04-29T14:23:55Z</time>
      </trkpt>
      <trkpt lat="43.45806" lon="1.57101">
        <ele>187.59</ele>
        <time>2021-04-29T14:23:56Z</time>
      </trkpt>
      <trkpt lat="43.45807" lon="1.57102">
        <ele>187.59</ele>
        <time>2021-04-29T14:23:57Z</time>
      </trkpt>
      <trkpt lat="43.45809" lon="1.57102">
        <ele>187.59</ele>
        <time>2021-04-29T14:23:58Z</time>
      </trkpt>
      <trkpt lat="43.45811" lon="1.57103">
        <ele>187.59</ele>
        <time>2021-04-29T14:23:59Z</time>
      </trkpt>
      <trkpt lat="43.45812" lon="1.57105">
        <ele>187.59</ele>
        <time>2021-04-29T14:24:00Z</time>
      </trkpt>
      <trkpt lat="43.45813" lon="1.57106">
        <ele>187.59</ele>
        <time>2021-04-29T14:24:01Z</time>
      </trkpt>
      <trkpt lat="43.45815" lon="1.57108">
        <ele>187.59</ele>
        <time>2021-04-29T14:24:02Z</time>
      </trkpt>
      <trkpt lat="43.45831" lon="1.57128">
        <ele>187.59</ele>
        <time>2021-04-29T14:24:15Z</time>
      </trkpt>
      <trkpt lat="43.45853" lon="1.57135">
        <ele>189.52</ele>
        <time>2021-04-29T14:24:30Z</time>
      </trkpt>
      <trkpt lat="43.45854" lon="1.57135">
        <ele>189.52</ele>
        <time>2021-04-29T14:24:31Z</time>
      </trkpt>
      <trkpt lat="43.45855" lon="1.57136">
        <ele>189.52</ele>
        <time>2021-04-29T14:24:32Z</time>
      </trkpt>
      <trkpt lat="43.45874" lon="1.57147">
        <ele>190</ele>
        <time>2021-04-29T14:24:49Z</time>
      </trkpt>
      <trkpt lat="43.45887" lon="1.57161">
        <ele>188.56</ele>
        <time>2021-04-29T14:25:01Z</time>
      </trkpt>
      <trkpt lat="43.45903" lon="1.57184">
        <ele>188.56</ele>
        <time>2021-04-29T14:25:17Z</time>
      </trkpt>
      <trkpt lat="43.45904" lon="1.57186">
        <ele>188.08</ele>
        <time>2021-04-29T14:25:18Z</time>
      </trkpt>
      <trkpt lat="43.45915" lon="1.57206">
        <ele>187.59</ele>
        <time>2021-04-29T14:25:30Z</time>
      </trkpt>
      <trkpt lat="43.45919" lon="1.57213">
        <ele>187.59</ele>
        <time>2021-04-29T14:25:34Z</time>
      </trkpt>
      <trkpt lat="43.4592" lon="1.57215">
        <ele>187.59</ele>
        <time>2021-04-29T14:25:35Z</time>
      </trkpt>
      <trkpt lat="43.45921" lon="1.57217">
        <ele>187.59</ele>
        <time>2021-04-29T14:25:36Z</time>
      </trkpt>
      <trkpt lat="43.45928" lon="1.5723">
        <ele>187.11</ele>
        <time>2021-04-29T14:25:45Z</time>
      </trkpt>
      <trkpt lat="43.45929" lon="1.57233">
        <ele>186.63</ele>
        <time>2021-04-29T14:25:46Z</time>
      </trkpt>
      <trkpt lat="43.45945" lon="1.57254">
        <ele>185.67</ele>
        <time>2021-04-29T14:25:59Z</time>
      </trkpt>
      <trkpt lat="43.45947" lon="1.57257">
        <ele>185.67</ele>
        <time>2021-04-29T14:26:01Z</time>
      </trkpt>
      <trkpt lat="43.45955" lon="1.57256">
        <ele>184.71</ele>
        <time>2021-04-29T14:26:09Z</time>
      </trkpt>
      <trkpt lat="43.45956" lon="1.57255">
        <ele>184.23</ele>
        <time>2021-04-29T14:26:10Z</time>
      </trkpt>
      <trkpt lat="43.45957" lon="1.57253">
        <ele>184.23</ele>
        <time>2021-04-29T14:26:11Z</time>
      </trkpt>
      <trkpt lat="43.45958" lon="1.57252">
        <ele>184.23</ele>
        <time>2021-04-29T14:26:12Z</time>
      </trkpt>
      <trkpt lat="43.4596" lon="1.5725">
        <ele>183.75</ele>
        <time>2021-04-29T14:26:13Z</time>
      </trkpt>
      <trkpt lat="43.45974" lon="1.57227">
        <ele>182.79</ele>
        <time>2021-04-29T14:26:26Z</time>
      </trkpt>
      <trkpt lat="43.45989" lon="1.57212">
        <ele>180.87</ele>
        <time>2021-04-29T14:26:39Z</time>
      </trkpt>
      <trkpt lat="43.45992" lon="1.57213">
        <ele>180.87</ele>
        <time>2021-04-29T14:26:40Z</time>
      </trkpt>
      <trkpt lat="43.45994" lon="1.57212">
        <ele>180.87</ele>
        <time>2021-04-29T14:26:41Z</time>
      </trkpt>
      <trkpt lat="43.45995" lon="1.57212">
        <ele>179.9</ele>
        <time>2021-04-29T14:26:42Z</time>
      </trkpt>
      <trkpt lat="43.46015" lon="1.57209">
        <ele>178.94</ele>
        <time>2021-04-29T14:26:54Z</time>
      </trkpt>
      <trkpt lat="43.46037" lon="1.57196">
        <ele>176.54</ele>
        <time>2021-04-29T14:27:09Z</time>
      </trkpt>
      <trkpt lat="43.46054" lon="1.57188">
        <ele>175.58</ele>
        <time>2021-04-29T14:27:21Z</time>
      </trkpt>
      <trkpt lat="43.46076" lon="1.57172">
        <ele>173.17</ele>
        <time>2021-04-29T14:27:36Z</time>
      </trkpt>
      <trkpt lat="43.46082" lon="1.57167">
        <ele>172.69</ele>
        <time>2021-04-29T14:27:42Z</time>
      </trkpt>
      <trkpt lat="43.46083" lon="1.57166">
        <ele>172.69</ele>
        <time>2021-04-29T14:27:43Z</time>
      </trkpt>
      <trkpt lat="43.46085" lon="1.57165">
        <ele>172.21</ele>
        <time>2021-04-29T14:27:44Z</time>
      </trkpt>
      <trkpt lat="43.46087" lon="1.57164">
        <ele>172.21</ele>
        <time>2021-04-29T14:27:45Z</time>
      </trkpt>
      <trkpt lat="43.46088" lon="1.57163">
        <ele>172.21</ele>
        <time>2021-04-29T14:27:46Z</time>
      </trkpt>
      <trkpt lat="43.4609" lon="1.57162">
        <ele>172.21</ele>
        <time>2021-04-29T14:27:47Z</time>
      </trkpt>
      <trkpt lat="43.46092" lon="1.57161">
        <ele>172.21</ele>
        <time>2021-04-29T14:27:48Z</time>
      </trkpt>
      <trkpt lat="43.46093" lon="1.5716">
        <ele>172.21</ele>
        <time>2021-04-29T14:27:49Z</time>
      </trkpt>
      <trkpt lat="43.46094" lon="1.57159">
        <ele>172.21</ele>
        <time>2021-04-29T14:27:50Z</time>
      </trkpt>
      <trkpt lat="43.46096" lon="1.57158">
        <ele>171.73</ele>
        <time>2021-04-29T14:27:51Z</time>
      </trkpt>
      <trkpt lat="43.46108" lon="1.57148">
        <ele>170.29</ele>
        <time>2021-04-29T14:28:01Z</time>
      </trkpt>
      <trkpt lat="43.46112" lon="1.57144">
        <ele>170.29</ele>
        <time>2021-04-29T14:28:04Z</time>
      </trkpt>
      <trkpt lat="43.46113" lon="1.57142">
        <ele>170.29</ele>
        <time>2021-04-29T14:28:05Z</time>
      </trkpt>
      <trkpt lat="43.46127" lon="1.57128">
        <ele>168.85</ele>
        <time>2021-04-29T14:28:16Z</time>
      </trkpt>
      <trkpt lat="43.46146" lon="1.57113">
        <ele>166.93</ele>
        <time>2021-04-29T14:28:29Z</time>
      </trkpt>
      <trkpt lat="43.4616" lon="1.57102">
        <ele>165</ele>
        <time>2021-04-29T14:28:40Z</time>
      </trkpt>
      <trkpt lat="43.46162" lon="1.57101">
        <ele>165</ele>
        <time>2021-04-29T14:28:41Z</time>
      </trkpt>
      <trkpt lat="43.46163" lon="1.571">
        <ele>165</ele>
        <time>2021-04-29T14:28:42Z</time>
      </trkpt>
      <trkpt lat="43.46172" lon="1.5709">
        <ele>164.04</ele>
        <time>2021-04-29T14:28:51Z</time>
      </trkpt>
      <trkpt lat="43.46173" lon="1.57088">
        <ele>164.04</ele>
        <time>2021-04-29T14:28:52Z</time>
      </trkpt>
      <trkpt lat="43.46173" lon="1.57085">
        <ele>163.56</ele>
        <time>2021-04-29T14:28:53Z</time>
      </trkpt>
      <trkpt lat="43.46175" lon="1.57062">
        <ele>163.08</ele>
        <time>2021-04-29T14:29:03Z</time>
      </trkpt>
      <trkpt lat="43.46164" lon="1.57051">
        <ele>164.04</ele>
        <time>2021-04-29T14:29:16Z</time>
      </trkpt>
      <trkpt lat="43.46148" lon="1.57042">
        <ele>164.52</ele>
        <time>2021-04-29T14:29:33Z</time>
      </trkpt>
      <trkpt lat="43.46136" lon="1.57032">
        <ele>165.48</ele>
        <time>2021-04-29T14:29:43Z</time>
      </trkpt>
      <trkpt lat="43.46136" lon="1.57031">
        <ele>165.48</ele>
        <time>2021-04-29T14:29:44Z</time>
      </trkpt>
      <trkpt lat="43.46123" lon="1.57018">
        <ele>166.45</ele>
        <time>2021-04-29T14:30:00Z</time>
      </trkpt>
      <trkpt lat="43.46106" lon="1.57003">
        <ele>166.93</ele>
        <time>2021-04-29T14:30:12Z</time>
      </trkpt>
      <trkpt lat="43.46101" lon="1.56998">
        <ele>167.41</ele>
        <time>2021-04-29T14:30:17Z</time>
      </trkpt>
      <trkpt lat="43.46099" lon="1.56997">
        <ele>167.41</ele>
        <time>2021-04-29T14:30:18Z</time>
      </trkpt>
      <trkpt lat="43.46087" lon="1.56989">
        <ele>168.85</ele>
        <time>2021-04-29T14:30:32Z</time>
      </trkpt>
      <trkpt lat="43.46074" lon="1.56981">
        <ele>169.81</ele>
        <time>2021-04-29T14:30:44Z</time>
      </trkpt>
      <trkpt lat="43.46056" lon="1.56967">
        <ele>170.77</ele>
        <time>2021-04-29T14:30:58Z</time>
      </trkpt>
      <trkpt lat="43.46049" lon="1.56963">
        <ele>171.73</ele>
        <time>2021-04-29T14:31:07Z</time>
      </trkpt>
      <trkpt lat="43.46033" lon="1.56949">
        <ele>172.69</ele>
        <time>2021-04-29T14:31:18Z</time>
      </trkpt>
      <trkpt lat="43.46017" lon="1.56935">
        <ele>173.66</ele>
        <time>2021-04-29T14:31:33Z</time>
      </trkpt>
      <trkpt lat="43.46014" lon="1.56932">
        <ele>173.66</ele>
        <time>2021-04-29T14:31:36Z</time>
      </trkpt>
      <trkpt lat="43.46005" lon="1.56921">
        <ele>174.62</ele>
        <time>2021-04-29T14:31:41Z</time>
      </trkpt>
      <trkpt lat="43.46003" lon="1.56918">
        <ele>174.62</ele>
        <time>2021-04-29T14:31:42Z</time>
      </trkpt>
      <trkpt lat="43.46001" lon="1.56914">
        <ele>174.62</ele>
        <time>2021-04-29T14:31:43Z</time>
      </trkpt>
      <trkpt lat="43.45991" lon="1.56897">
        <ele>175.1</ele>
        <time>2021-04-29T14:31:50Z</time>
      </trkpt>
      <trkpt lat="43.4599" lon="1.56895">
        <ele>175.1</ele>
        <time>2021-04-29T14:31:51Z</time>
      </trkpt>
      <trkpt lat="43.45983" lon="1.56877">
        <ele>176.06</ele>
        <time>2021-04-29T14:31:59Z</time>
      </trkpt>
      <trkpt lat="43.45975" lon="1.56863">
        <ele>177.02</ele>
        <time>2021-04-29T14:32:06Z</time>
      </trkpt>
      <trkpt lat="43.45975" lon="1.56862">
        <ele>177.02</ele>
        <time>2021-04-29T14:32:07Z</time>
      </trkpt>
      <trkpt lat="43.45974" lon="1.5686">
        <ele>177.02</ele>
        <time>2021-04-29T14:32:08Z</time>
      </trkpt>
      <trkpt lat="43.45974" lon="1.56858">
        <ele>177.5</ele>
        <time>2021-04-29T14:32:09Z</time>
      </trkpt>
      <trkpt lat="43.45966" lon="1.56839">
        <ele>178.94</ele>
        <time>2021-04-29T14:32:22Z</time>
      </trkpt>
      <trkpt lat="43.45963" lon="1.56832">
        <ele>179.42</ele>
        <time>2021-04-29T14:32:27Z</time>
      </trkpt>
      <trkpt lat="43.45959" lon="1.56801">
        <ele>180.87</ele>
        <time>2021-04-29T14:32:43Z</time>
      </trkpt>
      <trkpt lat="43.45955" lon="1.56787">
        <ele>181.83</ele>
        <time>2021-04-29T14:32:53Z</time>
      </trkpt>
      <trkpt lat="43.45954" lon="1.56786">
        <ele>181.83</ele>
        <time>2021-04-29T14:32:54Z</time>
      </trkpt>
      <trkpt lat="43.45953" lon="1.56784">
        <ele>181.83</ele>
        <time>2021-04-29T14:32:55Z</time>
      </trkpt>
      <trkpt lat="43.45952" lon="1.56783">
        <ele>181.83</ele>
        <time>2021-04-29T14:32:56Z</time>
      </trkpt>
      <trkpt lat="43.45951" lon="1.56781">
        <ele>181.83</ele>
        <time>2021-04-29T14:32:57Z</time>
      </trkpt>
      <trkpt lat="43.45951" lon="1.5678">
        <ele>182.31</ele>
        <time>2021-04-29T14:32:58Z</time>
      </trkpt>
      <trkpt lat="43.4595" lon="1.56778">
        <ele>182.31</ele>
        <time>2021-04-29T14:32:59Z</time>
      </trkpt>
      <trkpt lat="43.45949" lon="1.56776">
        <ele>182.31</ele>
        <time>2021-04-29T14:33:00Z</time>
      </trkpt>
      <trkpt lat="43.45948" lon="1.56774">
        <ele>182.79</ele>
        <time>2021-04-29T14:33:01Z</time>
      </trkpt>
      <trkpt lat="43.45947" lon="1.56773">
        <ele>183.27</ele>
        <time>2021-04-29T14:33:02Z</time>
      </trkpt>
      <trkpt lat="43.45934" lon="1.56739">
        <ele>184.71</ele>
        <time>2021-04-29T14:33:20Z</time>
      </trkpt>
      <trkpt lat="43.45933" lon="1.56737">
        <ele>184.71</ele>
        <time>2021-04-29T14:33:21Z</time>
      </trkpt>
      <trkpt lat="43.4593" lon="1.56732">
        <ele>185.67</ele>
        <time>2021-04-29T14:33:26Z</time>
      </trkpt>
      <trkpt lat="43.45929" lon="1.56731">
        <ele>185.67</ele>
        <time>2021-04-29T14:33:27Z</time>
      </trkpt>
      <trkpt lat="43.45923" lon="1.56725">
        <ele>186.15</ele>
        <time>2021-04-29T14:33:32Z</time>
      </trkpt>
      <trkpt lat="43.45923" lon="1.56723">
        <ele>186.15</ele>
        <time>2021-04-29T14:33:33Z</time>
      </trkpt>
      <trkpt lat="43.45914" lon="1.567">
        <ele>187.11</ele>
        <time>2021-04-29T14:33:48Z</time>
      </trkpt>
      <trkpt lat="43.45912" lon="1.56692">
        <ele>188.08</ele>
        <time>2021-04-29T14:33:52Z</time>
      </trkpt>
      <trkpt lat="43.45907" lon="1.5668">
        <ele>188.56</ele>
        <time>2021-04-29T14:34:04Z</time>
      </trkpt>
      <trkpt lat="43.45906" lon="1.5668">
        <ele>188.56</ele>
        <time>2021-04-29T14:34:05Z</time>
      </trkpt>
      <trkpt lat="43.45904" lon="1.56681">
        <ele>188.56</ele>
        <time>2021-04-29T14:34:06Z</time>
      </trkpt>
      <trkpt lat="43.45903" lon="1.56682">
        <ele>188.56</ele>
        <time>2021-04-29T14:34:07Z</time>
      </trkpt>
      <trkpt lat="43.45902" lon="1.56683">
        <ele>188.56</ele>
        <time>2021-04-29T14:34:08Z</time>
      </trkpt>
      <trkpt lat="43.45901" lon="1.56684">
        <ele>188.56</ele>
        <time>2021-04-29T14:34:09Z</time>
      </trkpt>
      <trkpt lat="43.45899" lon="1.56685">
        <ele>188.56</ele>
        <time>2021-04-29T14:34:10Z</time>
      </trkpt>
      <trkpt lat="43.45885" lon="1.56696">
        <ele>188.56</ele>
        <time>2021-04-29T14:34:23Z</time>
      </trkpt>
      <trkpt lat="43.45876" lon="1.56722">
        <ele>188.56</ele>
        <time>2021-04-29T14:34:35Z</time>
      </trkpt>
      <trkpt lat="43.45875" lon="1.56724">
        <ele>188.56</ele>
        <time>2021-04-29T14:34:36Z</time>
      </trkpt>
      <trkpt lat="43.45874" lon="1.56725">
        <ele>188.56</ele>
        <time>2021-04-29T14:34:37Z</time>
      </trkpt>
      <trkpt lat="43.45865" lon="1.56753">
        <ele>188.56</ele>
        <time>2021-04-29T14:34:52Z</time>
      </trkpt>
      <trkpt lat="43.45861" lon="1.56766">
        <ele>188.56</ele>
        <time>2021-04-29T14:35:00Z</time>
      </trkpt>
      <trkpt lat="43.4586" lon="1.56769">
        <ele>188.56</ele>
        <time>2021-04-29T14:35:01Z</time>
      </trkpt>
      <trkpt lat="43.4585" lon="1.56796">
        <ele>188.56</ele>
        <time>2021-04-29T14:35:14Z</time>
      </trkpt>
      <trkpt lat="43.45842" lon="1.56822">
        <ele>188.56</ele>
        <time>2021-04-29T14:35:27Z</time>
      </trkpt>
      <trkpt lat="43.45832" lon="1.56846">
        <ele>189.04</ele>
        <time>2021-04-29T14:35:41Z</time>
      </trkpt>
      <trkpt lat="43.45822" lon="1.56876">
        <ele>189.04</ele>
        <time>2021-04-29T14:35:55Z</time>
      </trkpt>
      <trkpt lat="43.45817" lon="1.56889">
        <ele>189.04</ele>
        <time>2021-04-29T14:36:04Z</time>
      </trkpt>
      <trkpt lat="43.45814" lon="1.56889">
        <ele>189.52</ele>
        <time>2021-04-29T14:36:06Z</time>
      </trkpt>
      <trkpt lat="43.45801" lon="1.5687">
        <ele>190</ele>
        <time>2021-04-29T14:36:19Z</time>
      </trkpt>
      <trkpt lat="43.45789" lon="1.56848">
        <ele>190</ele>
        <time>2021-04-29T14:36:34Z</time>
      </trkpt>
      <trkpt lat="43.45785" lon="1.56844">
        <ele>190.96</ele>
        <time>2021-04-29T14:36:39Z</time>
      </trkpt>
      <trkpt lat="43.45784" lon="1.56842">
        <ele>190.96</ele>
        <time>2021-04-29T14:36:40Z</time>
      </trkpt>
      <trkpt lat="43.45771" lon="1.56824">
        <ele>190.96</ele>
        <time>2021-04-29T14:36:56Z</time>
      </trkpt>
      <trkpt lat="43.4577" lon="1.56823">
        <ele>190.96</ele>
        <time>2021-04-29T14:36:57Z</time>
      </trkpt>
      <trkpt lat="43.45769" lon="1.56821">
        <ele>190.96</ele>
        <time>2021-04-29T14:36:58Z</time>
      </trkpt>
      <trkpt lat="43.45769" lon="1.56819">
        <ele>190.96</ele>
        <time>2021-04-29T14:36:59Z</time>
      </trkpt>
      <trkpt lat="43.45768" lon="1.56817">
        <ele>190.96</ele>
        <time>2021-04-29T14:37:00Z</time>
      </trkpt>
      <trkpt lat="43.45768" lon="1.56816">
        <ele>190.96</ele>
        <time>2021-04-29T14:37:01Z</time>
      </trkpt>
      <trkpt lat="43.4575" lon="1.5679">
        <ele>192.4</ele>
        <time>2021-04-29T14:37:16Z</time>
      </trkpt>
      <trkpt lat="43.45731" lon="1.5677">
        <ele>193.36</ele>
        <time>2021-04-29T14:37:32Z</time>
      </trkpt>
      <trkpt lat="43.45714" lon="1.56754">
        <ele>193.84</ele>
        <time>2021-04-29T14:37:47Z</time>
      </trkpt>
      <trkpt lat="43.45689" lon="1.56729">
        <ele>195.77</ele>
        <time>2021-04-29T14:38:06Z</time>
      </trkpt>
      <trkpt lat="43.45667" lon="1.5671">
        <ele>197.69</ele>
        <time>2021-04-29T14:38:26Z</time>
      </trkpt>
      <trkpt lat="43.45649" lon="1.56691">
        <ele>199.61</ele>
        <time>2021-04-29T14:38:41Z</time>
      </trkpt>
      <trkpt lat="43.45638" lon="1.56683">
        <ele>201.53</ele>
        <time>2021-04-29T14:38:52Z</time>
      </trkpt>
      <trkpt lat="43.45617" lon="1.56663">
        <ele>203.94</ele>
        <time>2021-04-29T14:39:10Z</time>
      </trkpt>
      <trkpt lat="43.45605" lon="1.56648">
        <ele>205.86</ele>
        <time>2021-04-29T14:39:24Z</time>
      </trkpt>
      <trkpt lat="43.45604" lon="1.56647">
        <ele>205.86</ele>
        <time>2021-04-29T14:39:25Z</time>
      </trkpt>
      <trkpt lat="43.45602" lon="1.56645">
        <ele>205.86</ele>
        <time>2021-04-29T14:39:26Z</time>
      </trkpt>
      <trkpt lat="43.45601" lon="1.56644">
        <ele>206.34</ele>
        <time>2021-04-29T14:39:27Z</time>
      </trkpt>
      <trkpt lat="43.45599" lon="1.56643">
        <ele>206.34</ele>
        <time>2021-04-29T14:39:28Z</time>
      </trkpt>
      <trkpt lat="43.45586" lon="1.56632">
        <ele>207.78</ele>
        <time>2021-04-29T14:39:41Z</time>
      </trkpt>
      <trkpt lat="43.45585" lon="1.56623">
        <ele>207.78</ele>
        <time>2021-04-29T14:39:47Z</time>
      </trkpt>
      <trkpt lat="43.456" lon="1.56607">
        <ele>207.78</ele>
        <time>2021-04-29T14:40:02Z</time>
      </trkpt>
      <trkpt lat="43.45617" lon="1.56589">
        <ele>206.34</ele>
        <time>2021-04-29T14:40:17Z</time>
      </trkpt>
      <trkpt lat="43.45633" lon="1.56573">
        <ele>205.38</ele>
        <time>2021-04-29T14:40:31Z</time>
      </trkpt>
      <trkpt lat="43.4565" lon="1.56555">
        <ele>203.94</ele>
        <time>2021-04-29T14:40:45Z</time>
      </trkpt>
      <trkpt lat="43.45669" lon="1.56539">
        <ele>203.46</ele>
        <time>2021-04-29T14:40:58Z</time>
      </trkpt>
      <trkpt lat="43.45684" lon="1.5652">
        <ele>202.49</ele>
        <time>2021-04-29T14:41:12Z</time>
      </trkpt>
      <trkpt lat="43.45702" lon="1.56501">
        <ele>202.01</ele>
        <time>2021-04-29T14:41:26Z</time>
      </trkpt>
      <trkpt lat="43.45721" lon="1.56481">
        <ele>201.53</ele>
        <time>2021-04-29T14:41:42Z</time>
      </trkpt>
      <trkpt lat="43.45736" lon="1.56464">
        <ele>200.57</ele>
        <time>2021-04-29T14:41:55Z</time>
      </trkpt>
      <trkpt lat="43.45753" lon="1.56438">
        <ele>200.09</ele>
        <time>2021-04-29T14:42:12Z</time>
      </trkpt>
      <trkpt lat="43.45769" lon="1.56415">
        <ele>199.61</ele>
        <time>2021-04-29T14:42:27Z</time>
      </trkpt>
      <trkpt lat="43.45787" lon="1.56393">
        <ele>198.65</ele>
        <time>2021-04-29T14:42:43Z</time>
      </trkpt>
      <trkpt lat="43.45804" lon="1.56374">
        <ele>198.17</ele>
        <time>2021-04-29T14:42:57Z</time>
      </trkpt>
      <trkpt lat="43.4582" lon="1.56357">
        <ele>196.25</ele>
        <time>2021-04-29T14:43:11Z</time>
      </trkpt>
      <trkpt lat="43.45833" lon="1.56327">
        <ele>194.8</ele>
        <time>2021-04-29T14:43:27Z</time>
      </trkpt>
      <trkpt lat="43.45834" lon="1.56297">
        <ele>193.84</ele>
        <time>2021-04-29T14:43:42Z</time>
      </trkpt>
      <trkpt lat="43.45835" lon="1.56269">
        <ele>193.36</ele>
        <time>2021-04-29T14:43:55Z</time>
      </trkpt>
      <trkpt lat="43.45839" lon="1.56241">
        <ele>193.36</ele>
        <time>2021-04-29T14:44:08Z</time>
      </trkpt>
      <trkpt lat="43.45845" lon="1.56215">
        <ele>192.4</ele>
        <time>2021-04-29T14:44:22Z</time>
      </trkpt>
      <trkpt lat="43.45847" lon="1.56211">
        <ele>191.92</ele>
        <time>2021-04-29T14:44:24Z</time>
      </trkpt>
      <trkpt lat="43.45855" lon="1.56183">
        <ele>191.44</ele>
        <time>2021-04-29T14:44:39Z</time>
      </trkpt>
      <trkpt lat="43.45855" lon="1.56182">
        <ele>190.96</ele>
        <time>2021-04-29T14:44:40Z</time>
      </trkpt>
      <trkpt lat="43.45856" lon="1.5618">
        <ele>190.96</ele>
        <time>2021-04-29T14:44:41Z</time>
      </trkpt>
      <trkpt lat="43.45857" lon="1.56178">
        <ele>190.96</ele>
        <time>2021-04-29T14:44:42Z</time>
      </trkpt>
      <trkpt lat="43.45857" lon="1.56176">
        <ele>190.48</ele>
        <time>2021-04-29T14:44:43Z</time>
      </trkpt>
      <trkpt lat="43.45858" lon="1.56175">
        <ele>190.48</ele>
        <time>2021-04-29T14:44:44Z</time>
      </trkpt>
      <trkpt lat="43.45858" lon="1.56173">
        <ele>190.48</ele>
        <time>2021-04-29T14:44:45Z</time>
      </trkpt>
      <trkpt lat="43.45859" lon="1.56172">
        <ele>190.48</ele>
        <time>2021-04-29T14:44:46Z</time>
      </trkpt>
      <trkpt lat="43.45869" lon="1.5614">
        <ele>189.04</ele>
        <time>2021-04-29T14:45:09Z</time>
      </trkpt>
      <trkpt lat="43.4588" lon="1.56119">
        <ele>187.59</ele>
        <time>2021-04-29T14:45:22Z</time>
      </trkpt>
      <trkpt lat="43.45894" lon="1.5609">
        <ele>185.67</ele>
        <time>2021-04-29T14:45:37Z</time>
      </trkpt>
      <trkpt lat="43.45904" lon="1.56061">
        <ele>183.75</ele>
        <time>2021-04-29T14:45:51Z</time>
      </trkpt>
      <trkpt lat="43.45912" lon="1.5603">
        <ele>181.35</ele>
        <time>2021-04-29T14:46:05Z</time>
      </trkpt>
      <trkpt lat="43.45915" lon="1.56016">
        <ele>180.38</ele>
        <time>2021-04-29T14:46:12Z</time>
      </trkpt>
      <trkpt lat="43.45924" lon="1.55987">
        <ele>177.98</ele>
        <time>2021-04-29T14:46:26Z</time>
      </trkpt>
      <trkpt lat="43.4593" lon="1.55969">
        <ele>177.02</ele>
        <time>2021-04-29T14:46:35Z</time>
      </trkpt>
      <trkpt lat="43.45941" lon="1.5594">
        <ele>175.1</ele>
        <time>2021-04-29T14:46:50Z</time>
      </trkpt>
      <trkpt lat="43.4595" lon="1.55912">
        <ele>173.66</ele>
        <time>2021-04-29T14:47:04Z</time>
      </trkpt>
      <trkpt lat="43.45962" lon="1.55886">
        <ele>172.69</ele>
        <time>2021-04-29T14:47:19Z</time>
      </trkpt>
      <trkpt lat="43.45967" lon="1.5588">
        <ele>172.21</ele>
        <time>2021-04-29T14:47:23Z</time>
      </trkpt>
      <trkpt lat="43.4597" lon="1.55875">
        <ele>172.21</ele>
        <time>2021-04-29T14:47:26Z</time>
      </trkpt>
      <trkpt lat="43.45979" lon="1.55849">
        <ele>171.25</ele>
        <time>2021-04-29T14:47:40Z</time>
      </trkpt>
      <trkpt lat="43.45988" lon="1.55831">
        <ele>170.29</ele>
        <time>2021-04-29T14:47:50Z</time>
      </trkpt>
      <trkpt lat="43.4599" lon="1.55829">
        <ele>170.29</ele>
        <time>2021-04-29T14:47:51Z</time>
      </trkpt>
      <trkpt lat="43.45996" lon="1.55803">
        <ele>169.81</ele>
        <time>2021-04-29T14:48:05Z</time>
      </trkpt>
      <trkpt lat="43.45996" lon="1.55801">
        <ele>169.81</ele>
        <time>2021-04-29T14:48:06Z</time>
      </trkpt>
      <trkpt lat="43.45997" lon="1.55799">
        <ele>169.81</ele>
        <time>2021-04-29T14:48:07Z</time>
      </trkpt>
      <trkpt lat="43.45997" lon="1.55797">
        <ele>169.81</ele>
        <time>2021-04-29T14:48:08Z</time>
      </trkpt>
      <trkpt lat="43.45997" lon="1.55796">
        <ele>169.81</ele>
        <time>2021-04-29T14:48:09Z</time>
      </trkpt>
      <trkpt lat="43.45997" lon="1.55794">
        <ele>169.81</ele>
        <time>2021-04-29T14:48:10Z</time>
      </trkpt>
      <trkpt lat="43.45989" lon="1.55794">
        <ele>169.81</ele>
        <time>2021-04-29T14:48:21Z</time>
      </trkpt>
      <trkpt lat="43.45987" lon="1.55795">
        <ele>169.81</ele>
        <time>2021-04-29T14:48:24Z</time>
      </trkpt>
      <trkpt lat="43.45986" lon="1.55796">
        <ele>169.81</ele>
        <time>2021-04-29T14:48:25Z</time>
      </trkpt>
      <trkpt lat="43.45985" lon="1.55797">
        <ele>169.81</ele>
        <time>2021-04-29T14:48:26Z</time>
      </trkpt>
      <trkpt lat="43.45968" lon="1.55804">
        <ele>169.81</ele>
        <time>2021-04-29T14:48:42Z</time>
      </trkpt>
      <trkpt lat="43.45961" lon="1.55803">
        <ele>168.85</ele>
        <time>2021-04-29T14:48:55Z</time>
      </trkpt>
      <trkpt lat="43.45959" lon="1.55803">
        <ele>170.29</ele>
        <time>2021-04-29T14:48:57Z</time>
      </trkpt>
      <trkpt lat="43.45928" lon="1.55802">
        <ele>171.73</ele>
        <time>2021-04-29T14:49:15Z</time>
      </trkpt>
      <trkpt lat="43.45904" lon="1.55805">
        <ele>173.66</ele>
        <time>2021-04-29T14:49:31Z</time>
      </trkpt>
      <trkpt lat="43.4588" lon="1.55806">
        <ele>174.62</ele>
        <time>2021-04-29T14:49:49Z</time>
      </trkpt>
      <trkpt lat="43.45858" lon="1.55806">
        <ele>176.54</ele>
        <time>2021-04-29T14:50:05Z</time>
      </trkpt>
      <trkpt lat="43.45842" lon="1.55804">
        <ele>177.98</ele>
        <time>2021-04-29T14:50:16Z</time>
      </trkpt>
      <trkpt lat="43.45822" lon="1.55806">
        <ele>179.42</ele>
        <time>2021-04-29T14:50:31Z</time>
      </trkpt>
      <trkpt lat="43.45798" lon="1.55803">
        <ele>180.38</ele>
        <time>2021-04-29T14:50:47Z</time>
      </trkpt>
      <trkpt lat="43.45779" lon="1.558">
        <ele>182.31</ele>
        <time>2021-04-29T14:50:58Z</time>
      </trkpt>
      <trkpt lat="43.45771" lon="1.55799">
        <ele>181.35</ele>
        <time>2021-04-29T14:51:04Z</time>
      </trkpt>
      <trkpt lat="43.45752" lon="1.55796">
        <ele>182.31</ele>
        <time>2021-04-29T14:51:17Z</time>
      </trkpt>
      <trkpt lat="43.45731" lon="1.55789">
        <ele>183.75</ele>
        <time>2021-04-29T14:51:32Z</time>
      </trkpt>
      <trkpt lat="43.45716" lon="1.55785">
        <ele>183.75</ele>
        <time>2021-04-29T14:51:46Z</time>
      </trkpt>
      <trkpt lat="43.45713" lon="1.55786">
        <ele>184.71</ele>
        <time>2021-04-29T14:51:49Z</time>
      </trkpt>
      <trkpt lat="43.457" lon="1.5578">
        <ele>185.19</ele>
        <time>2021-04-29T14:52:07Z</time>
      </trkpt>
      <trkpt lat="43.45692" lon="1.55775">
        <ele>185.67</ele>
        <time>2021-04-29T14:52:21Z</time>
      </trkpt>
      <trkpt lat="43.45686" lon="1.55776">
        <ele>185.67</ele>
        <time>2021-04-29T14:52:29Z</time>
      </trkpt>
      <trkpt lat="43.45684" lon="1.55776">
        <ele>185.67</ele>
        <time>2021-04-29T14:52:30Z</time>
      </trkpt>
      <trkpt lat="43.45663" lon="1.55775">
        <ele>187.11</ele>
        <time>2021-04-29T14:52:45Z</time>
      </trkpt>
      <trkpt lat="43.4564" lon="1.55776">
        <ele>187.59</ele>
        <time>2021-04-29T14:53:02Z</time>
      </trkpt>
      <trkpt lat="43.45622" lon="1.55776">
        <ele>190.96</ele>
        <time>2021-04-29T14:53:15Z</time>
      </trkpt>
      <trkpt lat="43.45601" lon="1.55784">
        <ele>193.36</ele>
        <time>2021-04-29T14:53:32Z</time>
      </trkpt>
      <trkpt lat="43.45592" lon="1.55785">
        <ele>194.32</ele>
        <time>2021-04-29T14:53:39Z</time>
      </trkpt>
      <trkpt lat="43.4559" lon="1.55785">
        <ele>194.32</ele>
        <time>2021-04-29T14:53:40Z</time>
      </trkpt>
      <trkpt lat="43.45586" lon="1.55785">
        <ele>194.32</ele>
        <time>2021-04-29T14:53:43Z</time>
      </trkpt>
      <trkpt lat="43.45584" lon="1.55786">
        <ele>194.32</ele>
        <time>2021-04-29T14:53:45Z</time>
      </trkpt>
      <trkpt lat="43.45582" lon="1.55786">
        <ele>194.32</ele>
        <time>2021-04-29T14:53:46Z</time>
      </trkpt>
      <trkpt lat="43.45561" lon="1.55787">
        <ele>195.28</ele>
        <time>2021-04-29T14:54:04Z</time>
      </trkpt>
      <trkpt lat="43.45545" lon="1.55778">
        <ele>196.25</ele>
        <time>2021-04-29T14:54:19Z</time>
      </trkpt>
      <trkpt lat="43.45541" lon="1.55776">
        <ele>195.28</ele>
        <time>2021-04-29T14:54:29Z</time>
      </trkpt>
      <trkpt lat="43.45536" lon="1.55774">
        <ele>196.73</ele>
        <time>2021-04-29T14:54:34Z</time>
      </trkpt>
      <trkpt lat="43.45534" lon="1.55772">
        <ele>193.36</ele>
        <time>2021-04-29T14:54:36Z</time>
      </trkpt>
      <trkpt lat="43.45532" lon="1.55768">
        <ele>197.69</ele>
        <time>2021-04-29T14:54:38Z</time>
      </trkpt>
      <trkpt lat="43.45529" lon="1.55766">
        <ele>198.65</ele>
        <time>2021-04-29T14:54:40Z</time>
      </trkpt>
      <trkpt lat="43.45526" lon="1.55765">
        <ele>197.21</ele>
        <time>2021-04-29T14:54:42Z</time>
      </trkpt>
      <trkpt lat="43.45505" lon="1.55751">
        <ele>198.17</ele>
        <time>2021-04-29T14:55:00Z</time>
      </trkpt>
      <trkpt lat="43.45503" lon="1.5575">
        <ele>198.17</ele>
        <time>2021-04-29T14:55:01Z</time>
      </trkpt>
      <trkpt lat="43.45484" lon="1.55736">
        <ele>198.65</ele>
        <time>2021-04-29T14:55:16Z</time>
      </trkpt>
      <trkpt lat="43.45464" lon="1.55716">
        <ele>200.09</ele>
        <time>2021-04-29T14:55:33Z</time>
      </trkpt>
      <trkpt lat="43.45436" lon="1.55703">
        <ele>202.01</ele>
        <time>2021-04-29T14:55:53Z</time>
      </trkpt>
      <trkpt lat="43.4542" lon="1.55696">
        <ele>202.98</ele>
        <time>2021-04-29T14:56:04Z</time>
      </trkpt>
      <trkpt lat="43.45404" lon="1.55695">
        <ele>205.38</ele>
        <time>2021-04-29T14:56:17Z</time>
      </trkpt>
      <trkpt lat="43.45382" lon="1.557">
        <ele>205.86</ele>
        <time>2021-04-29T14:56:34Z</time>
      </trkpt>
      <trkpt lat="43.4537" lon="1.557">
        <ele>204.42</ele>
        <time>2021-04-29T14:56:43Z</time>
      </trkpt>
      <trkpt lat="43.45358" lon="1.55701">
        <ele>203.94</ele>
        <time>2021-04-29T14:56:51Z</time>
      </trkpt>
      <trkpt lat="43.45356" lon="1.55701">
        <ele>203.94</ele>
        <time>2021-04-29T14:56:52Z</time>
      </trkpt>
      <trkpt lat="43.45354" lon="1.55701">
        <ele>203.94</ele>
        <time>2021-04-29T14:56:53Z</time>
      </trkpt>
      <trkpt lat="43.45353" lon="1.55701">
        <ele>203.94</ele>
        <time>2021-04-29T14:56:54Z</time>
      </trkpt>
      <trkpt lat="43.45351" lon="1.55701">
        <ele>203.94</ele>
        <time>2021-04-29T14:56:55Z</time>
      </trkpt>
      <trkpt lat="43.45349" lon="1.55701">
        <ele>203.46</ele>
        <time>2021-04-29T14:56:56Z</time>
      </trkpt>
      <trkpt lat="43.45327" lon="1.55706">
        <ele>202.98</ele>
        <time>2021-04-29T14:57:09Z</time>
      </trkpt>
      <trkpt lat="43.45319" lon="1.55708">
        <ele>202.49</ele>
        <time>2021-04-29T14:57:16Z</time>
      </trkpt>
      <trkpt lat="43.45318" lon="1.55708">
        <ele>202.01</ele>
        <time>2021-04-29T14:57:17Z</time>
      </trkpt>
      <trkpt lat="43.45309" lon="1.5571">
        <ele>202.01</ele>
        <time>2021-04-29T14:57:22Z</time>
      </trkpt>
      <trkpt lat="43.45307" lon="1.5571">
        <ele>202.01</ele>
        <time>2021-04-29T14:57:23Z</time>
      </trkpt>
      <trkpt lat="43.45306" lon="1.5571">
        <ele>202.01</ele>
        <time>2021-04-29T14:57:24Z</time>
      </trkpt>
      <trkpt lat="43.45304" lon="1.5571">
        <ele>202.01</ele>
        <time>2021-04-29T14:57:25Z</time>
      </trkpt>
      <trkpt lat="43.45302" lon="1.55709">
        <ele>202.01</ele>
        <time>2021-04-29T14:57:26Z</time>
      </trkpt>
      <trkpt lat="43.45301" lon="1.55709">
        <ele>202.01</ele>
        <time>2021-04-29T14:57:27Z</time>
      </trkpt>
      <trkpt lat="43.45283" lon="1.55699">
        <ele>202.01</ele>
        <time>2021-04-29T14:57:43Z</time>
      </trkpt>
      <trkpt lat="43.45269" lon="1.55688">
        <ele>203.46</ele>
        <time>2021-04-29T14:57:53Z</time>
      </trkpt>
      <trkpt lat="43.45248" lon="1.55676">
        <ele>205.38</ele>
        <time>2021-04-29T14:58:11Z</time>
      </trkpt>
      <trkpt lat="43.45225" lon="1.55657">
        <ele>207.78</ele>
        <time>2021-04-29T14:58:28Z</time>
      </trkpt>
      <trkpt lat="43.45223" lon="1.55656">
        <ele>207.78</ele>
        <time>2021-04-29T14:58:30Z</time>
      </trkpt>
      <trkpt lat="43.45219" lon="1.55654">
        <ele>208.26</ele>
        <time>2021-04-29T14:58:34Z</time>
      </trkpt>
      <trkpt lat="43.45202" lon="1.55639">
        <ele>210.67</ele>
        <time>2021-04-29T14:58:49Z</time>
      </trkpt>
      <trkpt lat="43.45182" lon="1.55628">
        <ele>214.03</ele>
        <time>2021-04-29T14:59:06Z</time>
      </trkpt>
      <trkpt lat="43.45157" lon="1.55613">
        <ele>214.51</ele>
        <time>2021-04-29T14:59:26Z</time>
      </trkpt>
      <trkpt lat="43.45134" lon="1.55598">
        <ele>214.51</ele>
        <time>2021-04-29T14:59:41Z</time>
      </trkpt>
      <trkpt lat="43.45116" lon="1.55588">
        <ele>213.55</ele>
        <time>2021-04-29T14:59:54Z</time>
      </trkpt>
      <trkpt lat="43.45097" lon="1.55576">
        <ele>213.55</ele>
        <time>2021-04-29T15:00:09Z</time>
      </trkpt>
      <trkpt lat="43.45076" lon="1.5556">
        <ele>214.51</ele>
        <time>2021-04-29T15:00:25Z</time>
      </trkpt>
      <trkpt lat="43.45054" lon="1.55547">
        <ele>215.47</ele>
        <time>2021-04-29T15:00:41Z</time>
      </trkpt>
      <trkpt lat="43.45052" lon="1.55546">
        <ele>215.95</ele>
        <time>2021-04-29T15:00:42Z</time>
      </trkpt>
      <trkpt lat="43.45036" lon="1.55534">
        <ele>217.88</ele>
        <time>2021-04-29T15:00:58Z</time>
      </trkpt>
      <trkpt lat="43.45017" lon="1.55512">
        <ele>220.28</ele>
        <time>2021-04-29T15:01:16Z</time>
      </trkpt>
      <trkpt lat="43.45" lon="1.55493">
        <ele>221.72</ele>
        <time>2021-04-29T15:01:30Z</time>
      </trkpt>
      <trkpt lat="43.44986" lon="1.55483">
        <ele>222.2</ele>
        <time>2021-04-29T15:01:42Z</time>
      </trkpt>
      <trkpt lat="43.4497" lon="1.55479">
        <ele>223.16</ele>
        <time>2021-04-29T15:01:52Z</time>
      </trkpt>
      <trkpt lat="43.44969" lon="1.5548">
        <ele>224.12</ele>
        <time>2021-04-29T15:01:53Z</time>
      </trkpt>
      <trkpt lat="43.44962" lon="1.55485">
        <ele>224.12</ele>
        <time>2021-04-29T15:01:58Z</time>
      </trkpt>
      <trkpt lat="43.44961" lon="1.55487">
        <ele>224.12</ele>
        <time>2021-04-29T15:01:59Z</time>
      </trkpt>
      <trkpt lat="43.44961" lon="1.55489">
        <ele>224.12</ele>
        <time>2021-04-29T15:02:00Z</time>
      </trkpt>
      <trkpt lat="43.44961" lon="1.55491">
        <ele>224.12</ele>
        <time>2021-04-29T15:02:01Z</time>
      </trkpt>
      <trkpt lat="43.44961" lon="1.55493">
        <ele>224.12</ele>
        <time>2021-04-29T15:02:02Z</time>
      </trkpt>
      <trkpt lat="43.44959" lon="1.55493">
        <ele>224.61</ele>
        <time>2021-04-29T15:02:03Z</time>
      </trkpt>
      <trkpt lat="43.44942" lon="1.55509">
        <ele>226.05</ele>
        <time>2021-04-29T15:02:18Z</time>
      </trkpt>
      <trkpt lat="43.44924" lon="1.55528">
        <ele>227.49</ele>
        <time>2021-04-29T15:02:34Z</time>
      </trkpt>
      <trkpt lat="43.44917" lon="1.55538">
        <ele>228.45</ele>
        <time>2021-04-29T15:02:47Z</time>
      </trkpt>
      <trkpt lat="43.44913" lon="1.55539">
        <ele>228.93</ele>
        <time>2021-04-29T15:02:52Z</time>
      </trkpt>
      <trkpt lat="43.44912" lon="1.5554">
        <ele>228.93</ele>
        <time>2021-04-29T15:02:53Z</time>
      </trkpt>
      <trkpt lat="43.44906" lon="1.55539">
        <ele>228.45</ele>
        <time>2021-04-29T15:02:58Z</time>
      </trkpt>
      <trkpt lat="43.44889" lon="1.55535">
        <ele>227.01</ele>
        <time>2021-04-29T15:03:14Z</time>
      </trkpt>
      <trkpt lat="43.4489" lon="1.55534">
        <ele>227.01</ele>
        <time>2021-04-29T15:03:30Z</time>
      </trkpt>
      <trkpt lat="43.44889" lon="1.55534">
        <ele>227.01</ele>
        <time>2021-04-29T15:03:55Z</time>
      </trkpt>
      <trkpt lat="43.44889" lon="1.55535">
        <ele>227.01</ele>
        <time>2021-04-29T15:04:19Z</time>
      </trkpt>
      <trkpt lat="43.44884" lon="1.55534">
        <ele>227.01</ele>
        <time>2021-04-29T15:04:33Z</time>
      </trkpt>
      <trkpt lat="43.44882" lon="1.55534">
        <ele>226.53</ele>
        <time>2021-04-29T15:04:50Z</time>
      </trkpt>
      <trkpt lat="43.4488" lon="1.55534">
        <ele>226.53</ele>
        <time>2021-04-29T15:04:51Z</time>
      </trkpt>
      <trkpt lat="43.44879" lon="1.55534">
        <ele>226.53</ele>
        <time>2021-04-29T15:04:52Z</time>
      </trkpt>
      <trkpt lat="43.4485" lon="1.55531">
        <ele>225.57</ele>
        <time>2021-04-29T15:05:09Z</time>
      </trkpt>
      <trkpt lat="43.44831" lon="1.55532">
        <ele>225.09</ele>
        <time>2021-04-29T15:05:22Z</time>
      </trkpt>
      <trkpt lat="43.44802" lon="1.55535">
        <ele>223.64</ele>
        <time>2021-04-29T15:05:40Z</time>
      </trkpt>
      <trkpt lat="43.44789" lon="1.55537">
        <ele>223.64</ele>
        <time>2021-04-29T15:05:49Z</time>
      </trkpt>
      <trkpt lat="43.44787" lon="1.55538">
        <ele>223.64</ele>
        <time>2021-04-29T15:05:50Z</time>
      </trkpt>
      <trkpt lat="43.44769" lon="1.5554">
        <ele>225.09</ele>
        <time>2021-04-29T15:06:02Z</time>
      </trkpt>
      <trkpt lat="43.44756" lon="1.5554">
        <ele>226.05</ele>
        <time>2021-04-29T15:06:11Z</time>
      </trkpt>
      <trkpt lat="43.44755" lon="1.55541">
        <ele>226.05</ele>
        <time>2021-04-29T15:06:12Z</time>
      </trkpt>
      <trkpt lat="43.44754" lon="1.55541">
        <ele>226.05</ele>
        <time>2021-04-29T15:06:13Z</time>
      </trkpt>
      <trkpt lat="43.44736" lon="1.55544">
        <ele>228.45</ele>
        <time>2021-04-29T15:06:28Z</time>
      </trkpt>
      <trkpt lat="43.44714" lon="1.55549">
        <ele>230.85</ele>
        <time>2021-04-29T15:06:43Z</time>
      </trkpt>
      <trkpt lat="43.44696" lon="1.55551">
        <ele>233.26</ele>
        <time>2021-04-29T15:06:57Z</time>
      </trkpt>
      <trkpt lat="43.4468" lon="1.55554">
        <ele>236.62</ele>
        <time>2021-04-29T15:07:13Z</time>
      </trkpt>
      <trkpt lat="43.44663" lon="1.55556">
        <ele>239.51</ele>
        <time>2021-04-29T15:07:28Z</time>
      </trkpt>
      <trkpt lat="43.44643" lon="1.55563">
        <ele>241.91</ele>
        <time>2021-04-29T15:07:43Z</time>
      </trkpt>
      <trkpt lat="43.44629" lon="1.55569">
        <ele>244.31</ele>
        <time>2021-04-29T15:07:56Z</time>
      </trkpt>
      <trkpt lat="43.44609" lon="1.55578">
        <ele>246.72</ele>
        <time>2021-04-29T15:08:11Z</time>
      </trkpt>
      <trkpt lat="43.44597" lon="1.55584">
        <ele>248.64</ele>
        <time>2021-04-29T15:08:23Z</time>
      </trkpt>
      <trkpt lat="43.44595" lon="1.55585">
        <ele>248.64</ele>
        <time>2021-04-29T15:08:25Z</time>
      </trkpt>
      <trkpt lat="43.44594" lon="1.55586">
        <ele>248.64</ele>
        <time>2021-04-29T15:08:26Z</time>
      </trkpt>
      <trkpt lat="43.44593" lon="1.55587">
        <ele>248.64</ele>
        <time>2021-04-29T15:08:27Z</time>
      </trkpt>
      <trkpt lat="43.44592" lon="1.55587">
        <ele>248.64</ele>
        <time>2021-04-29T15:08:28Z</time>
      </trkpt>
      <trkpt lat="43.44589" lon="1.55593">
        <ele>249.12</ele>
        <time>2021-04-29T15:08:34Z</time>
      </trkpt>
      <trkpt lat="43.44588" lon="1.55594">
        <ele>249.12</ele>
        <time>2021-04-29T15:08:35Z</time>
      </trkpt>
      <trkpt lat="43.44587" lon="1.55595">
        <ele>249.12</ele>
        <time>2021-04-29T15:08:36Z</time>
      </trkpt>
      <trkpt lat="43.44586" lon="1.55597">
        <ele>249.12</ele>
        <time>2021-04-29T15:08:37Z</time>
      </trkpt>
      <trkpt lat="43.44586" lon="1.55598">
        <ele>249.12</ele>
        <time>2021-04-29T15:08:38Z</time>
      </trkpt>
      <trkpt lat="43.44585" lon="1.556">
        <ele>249.12</ele>
        <time>2021-04-29T15:08:39Z</time>
      </trkpt>
      <trkpt lat="43.44584" lon="1.55601">
        <ele>249.12</ele>
        <time>2021-04-29T15:08:40Z</time>
      </trkpt>
      <trkpt lat="43.44583" lon="1.55602">
        <ele>249.12</ele>
        <time>2021-04-29T15:08:41Z</time>
      </trkpt>
      <trkpt lat="43.44571" lon="1.55619">
        <ele>249.6</ele>
        <time>2021-04-29T15:08:55Z</time>
      </trkpt>
      <trkpt lat="43.44555" lon="1.55643">
        <ele>249.6</ele>
        <time>2021-04-29T15:09:10Z</time>
      </trkpt>
      <trkpt lat="43.44552" lon="1.55647">
        <ele>249.6</ele>
        <time>2021-04-29T15:09:13Z</time>
      </trkpt>
      <trkpt lat="43.4455" lon="1.55648">
        <ele>249.6</ele>
        <time>2021-04-29T15:09:14Z</time>
      </trkpt>
      <trkpt lat="43.44549" lon="1.55649">
        <ele>249.6</ele>
        <time>2021-04-29T15:09:15Z</time>
      </trkpt>
      <trkpt lat="43.44547" lon="1.5565">
        <ele>249.6</ele>
        <time>2021-04-29T15:09:16Z</time>
      </trkpt>
      <trkpt lat="43.44546" lon="1.55652">
        <ele>249.6</ele>
        <time>2021-04-29T15:09:17Z</time>
      </trkpt>
      <trkpt lat="43.4453" lon="1.55675">
        <ele>249.6</ele>
        <time>2021-04-29T15:09:32Z</time>
      </trkpt>
      <trkpt lat="43.44523" lon="1.55685">
        <ele>248.16</ele>
        <time>2021-04-29T15:09:40Z</time>
      </trkpt>
      <trkpt lat="43.4451" lon="1.55707">
        <ele>248.16</ele>
        <time>2021-04-29T15:09:52Z</time>
      </trkpt>
      <trkpt lat="43.44492" lon="1.55734">
        <ele>247.68</ele>
        <time>2021-04-29T15:10:09Z</time>
      </trkpt>
      <trkpt lat="43.44474" lon="1.5576">
        <ele>246.72</ele>
        <time>2021-04-29T15:10:26Z</time>
      </trkpt>
      <trkpt lat="43.44461" lon="1.55774">
        <ele>246.23</ele>
        <time>2021-04-29T15:10:38Z</time>
      </trkpt>
      <trkpt lat="43.44457" lon="1.55779">
        <ele>245.75</ele>
        <time>2021-04-29T15:10:43Z</time>
      </trkpt>
      <trkpt lat="43.44456" lon="1.5578">
        <ele>245.75</ele>
        <time>2021-04-29T15:10:44Z</time>
      </trkpt>
      <trkpt lat="43.4444" lon="1.55794">
        <ele>244.79</ele>
        <time>2021-04-29T15:10:59Z</time>
      </trkpt>
      <trkpt lat="43.44439" lon="1.55794">
        <ele>244.79</ele>
        <time>2021-04-29T15:11:00Z</time>
      </trkpt>
      <trkpt lat="43.44438" lon="1.55795">
        <ele>244.79</ele>
        <time>2021-04-29T15:11:01Z</time>
      </trkpt>
      <trkpt lat="43.44436" lon="1.55795">
        <ele>244.79</ele>
        <time>2021-04-29T15:11:02Z</time>
      </trkpt>
      <trkpt lat="43.44434" lon="1.55794">
        <ele>244.31</ele>
        <time>2021-04-29T15:11:03Z</time>
      </trkpt>
      <trkpt lat="43.44433" lon="1.55794">
        <ele>244.31</ele>
        <time>2021-04-29T15:11:04Z</time>
      </trkpt>
      <trkpt lat="43.44432" lon="1.55792">
        <ele>244.31</ele>
        <time>2021-04-29T15:11:06Z</time>
      </trkpt>
      <trkpt lat="43.44431" lon="1.55791">
        <ele>244.31</ele>
        <time>2021-04-29T15:11:07Z</time>
      </trkpt>
      <trkpt lat="43.4443" lon="1.55789">
        <ele>244.31</ele>
        <time>2021-04-29T15:11:08Z</time>
      </trkpt>
      <trkpt lat="43.44426" lon="1.55783">
        <ele>246.23</ele>
        <time>2021-04-29T15:11:13Z</time>
      </trkpt>
      <trkpt lat="43.44425" lon="1.5578">
        <ele>246.23</ele>
        <time>2021-04-29T15:11:16Z</time>
      </trkpt>
      <trkpt lat="43.44425" lon="1.55778">
        <ele>246.23</ele>
        <time>2021-04-29T15:11:18Z</time>
      </trkpt>
      <trkpt lat="43.44424" lon="1.55777">
        <ele>246.23</ele>
        <time>2021-04-29T15:11:19Z</time>
      </trkpt>
      <trkpt lat="43.44423" lon="1.55775">
        <ele>246.23</ele>
        <time>2021-04-29T15:11:20Z</time>
      </trkpt>
      <trkpt lat="43.44422" lon="1.55774">
        <ele>246.23</ele>
        <time>2021-04-29T15:11:21Z</time>
      </trkpt>
      <trkpt lat="43.44401" lon="1.55752">
        <ele>247.68</ele>
        <time>2021-04-29T15:11:38Z</time>
      </trkpt>
      <trkpt lat="43.44381" lon="1.55742">
        <ele>248.64</ele>
        <time>2021-04-29T15:11:52Z</time>
      </trkpt>
      <trkpt lat="43.44358" lon="1.55737">
        <ele>248.64</ele>
        <time>2021-04-29T15:12:07Z</time>
      </trkpt>
      <trkpt lat="43.44335" lon="1.5573">
        <ele>247.2</ele>
        <time>2021-04-29T15:12:22Z</time>
      </trkpt>
      <trkpt lat="43.44314" lon="1.55726">
        <ele>246.72</ele>
        <time>2021-04-29T15:12:36Z</time>
      </trkpt>
      <trkpt lat="43.44288" lon="1.55719">
        <ele>245.27</ele>
        <time>2021-04-29T15:12:52Z</time>
      </trkpt>
      <trkpt lat="43.44264" lon="1.55712">
        <ele>244.31</ele>
        <time>2021-04-29T15:13:07Z</time>
      </trkpt>
      <trkpt lat="43.44244" lon="1.55703">
        <ele>243.83</ele>
        <time>2021-04-29T15:13:21Z</time>
      </trkpt>
      <trkpt lat="43.44228" lon="1.55685">
        <ele>243.35</ele>
        <time>2021-04-29T15:13:36Z</time>
      </trkpt>
      <trkpt lat="43.44221" lon="1.55674">
        <ele>242.87</ele>
        <time>2021-04-29T15:13:44Z</time>
      </trkpt>
      <trkpt lat="43.4422" lon="1.55672">
        <ele>242.87</ele>
        <time>2021-04-29T15:13:45Z</time>
      </trkpt>
      <trkpt lat="43.44219" lon="1.55671">
        <ele>242.87</ele>
        <time>2021-04-29T15:13:46Z</time>
      </trkpt>
      <trkpt lat="43.44219" lon="1.55669">
        <ele>242.87</ele>
        <time>2021-04-29T15:13:47Z</time>
      </trkpt>
      <trkpt lat="43.44218" lon="1.55667">
        <ele>242.87</ele>
        <time>2021-04-29T15:13:48Z</time>
      </trkpt>
      <trkpt lat="43.44217" lon="1.55666">
        <ele>242.87</ele>
        <time>2021-04-29T15:13:49Z</time>
      </trkpt>
      <trkpt lat="43.44216" lon="1.55664">
        <ele>242.87</ele>
        <time>2021-04-29T15:13:50Z</time>
      </trkpt>
      <trkpt lat="43.44205" lon="1.55641">
        <ele>243.83</ele>
        <time>2021-04-29T15:14:04Z</time>
      </trkpt>
      <trkpt lat="43.4419" lon="1.5562">
        <ele>244.31</ele>
        <time>2021-04-29T15:14:19Z</time>
      </trkpt>
      <trkpt lat="43.44169" lon="1.55596">
        <ele>244.79</ele>
        <time>2021-04-29T15:14:35Z</time>
      </trkpt>
      <trkpt lat="43.44151" lon="1.55577">
        <ele>246.23</ele>
        <time>2021-04-29T15:14:52Z</time>
      </trkpt>
      <trkpt lat="43.44149" lon="1.55572">
        <ele>246.23</ele>
        <time>2021-04-29T15:15:04Z</time>
      </trkpt>
      <trkpt lat="43.44149" lon="1.55571">
        <ele>247.2</ele>
        <time>2021-04-29T15:15:21Z</time>
      </trkpt>
      <trkpt lat="43.44147" lon="1.55573">
        <ele>247.2</ele>
        <time>2021-04-29T15:15:45Z</time>
      </trkpt>
    </trkseg>
  </trk>
</gpx>